<?xml version="1.0" encoding="UTF-8" standalone="no" ?>
<gpx xmlns="http://www.topografix.com/GPX/1/1" xmlns:xsi="http://www.w3.org/2001/XMLSchema-instance" xsi:schemaLocation="http://www.topografix.com/GPX/1/1 http://www.topografix.com/GPX/1/1/gpx.xsd" version="1.1" creator="VisuGPX - https://www.visugpx.com">
  <metadata>
    <name>13sept2014</name>
    <desc><![CDATA[club vtt des rochers]]></desc>
  </metadata>
  <trk>
    <name><![CDATA[13-SEPT-14 17-15-11]]></name>
    <trkseg>
      <trkpt lat="44.47199" lon="0.93418">
        <ele>71.27</ele>
        <time>2014-09-13T13:16:16Z</time>
      </trkpt>
      <trkpt lat="44.47203" lon="0.93419">
        <ele>72.72</ele>
        <time>2014-09-13T13:16:31Z</time>
      </trkpt>
      <trkpt lat="44.47206" lon="0.93422">
        <ele>73.68</ele>
        <time>2014-09-13T13:16:44Z</time>
      </trkpt>
      <trkpt lat="44.47206" lon="0.93424">
        <ele>76.56</ele>
        <time>2014-09-13T13:17:04Z</time>
      </trkpt>
      <trkpt lat="44.47206" lon="0.93422">
        <ele>77.52</ele>
        <time>2014-09-13T13:17:19Z</time>
      </trkpt>
      <trkpt lat="44.47207" lon="0.93422">
        <ele>77.52</ele>
        <time>2014-09-13T13:17:47Z</time>
      </trkpt>
      <trkpt lat="44.47207" lon="0.93424">
        <ele>77.52</ele>
        <time>2014-09-13T13:17:52Z</time>
      </trkpt>
      <trkpt lat="44.47206" lon="0.93426">
        <ele>77.52</ele>
        <time>2014-09-13T13:17:54Z</time>
      </trkpt>
      <trkpt lat="44.47194" lon="0.93432">
        <ele>76.56</ele>
        <time>2014-09-13T13:18:08Z</time>
      </trkpt>
      <trkpt lat="44.47194" lon="0.93433">
        <ele>76.08</ele>
        <time>2014-09-13T13:18:23Z</time>
      </trkpt>
      <trkpt lat="44.47195" lon="0.93433">
        <ele>75.12</ele>
        <time>2014-09-13T13:18:37Z</time>
      </trkpt>
      <trkpt lat="44.47196" lon="0.93433">
        <ele>72.72</ele>
        <time>2014-09-13T13:18:49Z</time>
      </trkpt>
      <trkpt lat="44.47194" lon="0.93429">
        <ele>72.72</ele>
        <time>2014-09-13T13:19:03Z</time>
      </trkpt>
      <trkpt lat="44.47192" lon="0.93426">
        <ele>72.24</ele>
        <time>2014-09-13T13:19:15Z</time>
      </trkpt>
      <trkpt lat="44.47192" lon="0.93426">
        <ele>72.72</ele>
        <time>2014-09-13T13:19:29Z</time>
      </trkpt>
      <trkpt lat="44.47192" lon="0.93425">
        <ele>73.68</ele>
        <time>2014-09-13T13:19:52Z</time>
      </trkpt>
      <trkpt lat="44.47194" lon="0.93428">
        <ele>73.68</ele>
        <time>2014-09-13T13:20:08Z</time>
      </trkpt>
      <trkpt lat="44.47192" lon="0.93429">
        <ele>73.2</ele>
        <time>2014-09-13T13:20:22Z</time>
      </trkpt>
      <trkpt lat="44.47192" lon="0.93429">
        <ele>73.68</ele>
        <time>2014-09-13T13:20:37Z</time>
      </trkpt>
      <trkpt lat="44.47192" lon="0.93431">
        <ele>72.24</ele>
        <time>2014-09-13T13:21:11Z</time>
      </trkpt>
      <trkpt lat="44.47191" lon="0.9343">
        <ele>72.72</ele>
        <time>2014-09-13T13:21:24Z</time>
      </trkpt>
      <trkpt lat="44.47191" lon="0.93431">
        <ele>73.2</ele>
        <time>2014-09-13T13:21:49Z</time>
      </trkpt>
      <trkpt lat="44.47191" lon="0.9343">
        <ele>73.68</ele>
        <time>2014-09-13T13:22:06Z</time>
      </trkpt>
      <trkpt lat="44.47191" lon="0.93431">
        <ele>72.72</ele>
        <time>2014-09-13T13:22:20Z</time>
      </trkpt>
      <trkpt lat="44.4719" lon="0.93431">
        <ele>73.2</ele>
        <time>2014-09-13T13:22:38Z</time>
      </trkpt>
      <trkpt lat="44.4719" lon="0.93431">
        <ele>72.72</ele>
        <time>2014-09-13T13:22:51Z</time>
      </trkpt>
      <trkpt lat="44.4719" lon="0.93431">
        <ele>72.24</ele>
        <time>2014-09-13T13:23:07Z</time>
      </trkpt>
      <trkpt lat="44.4719" lon="0.93431">
        <ele>71.76</ele>
        <time>2014-09-13T13:23:18Z</time>
      </trkpt>
      <trkpt lat="44.4719" lon="0.9343">
        <ele>71.27</ele>
        <time>2014-09-13T13:23:35Z</time>
      </trkpt>
      <trkpt lat="44.47189" lon="0.93431">
        <ele>72.24</ele>
        <time>2014-09-13T13:24:06Z</time>
      </trkpt>
      <trkpt lat="44.47188" lon="0.93431">
        <ele>71.76</ele>
        <time>2014-09-13T13:24:32Z</time>
      </trkpt>
      <trkpt lat="44.47188" lon="0.93431">
        <ele>70.79</ele>
        <time>2014-09-13T13:24:52Z</time>
      </trkpt>
      <trkpt lat="44.47188" lon="0.93431">
        <ele>69.83</ele>
        <time>2014-09-13T13:25:13Z</time>
      </trkpt>
      <trkpt lat="44.47187" lon="0.93432">
        <ele>69.83</ele>
        <time>2014-09-13T13:25:15Z</time>
      </trkpt>
      <trkpt lat="44.47189" lon="0.93456">
        <ele>69.35</ele>
        <time>2014-09-13T13:25:26Z</time>
      </trkpt>
      <trkpt lat="44.47191" lon="0.93458">
        <ele>69.35</ele>
        <time>2014-09-13T13:25:27Z</time>
      </trkpt>
      <trkpt lat="44.47192" lon="0.93459">
        <ele>69.35</ele>
        <time>2014-09-13T13:25:28Z</time>
      </trkpt>
      <trkpt lat="44.47194" lon="0.9346">
        <ele>69.35</ele>
        <time>2014-09-13T13:25:29Z</time>
      </trkpt>
      <trkpt lat="44.47197" lon="0.93462">
        <ele>69.35</ele>
        <time>2014-09-13T13:25:30Z</time>
      </trkpt>
      <trkpt lat="44.4722" lon="0.935">
        <ele>69.83</ele>
        <time>2014-09-13T13:25:44Z</time>
      </trkpt>
      <trkpt lat="44.4723" lon="0.93569">
        <ele>69.35</ele>
        <time>2014-09-13T13:25:59Z</time>
      </trkpt>
      <trkpt lat="44.47257" lon="0.93627">
        <ele>69.83</ele>
        <time>2014-09-13T13:26:13Z</time>
      </trkpt>
      <trkpt lat="44.47264" lon="0.93633">
        <ele>70.31</ele>
        <time>2014-09-13T13:26:15Z</time>
      </trkpt>
      <trkpt lat="44.4727" lon="0.9364">
        <ele>70.31</ele>
        <time>2014-09-13T13:26:17Z</time>
      </trkpt>
      <trkpt lat="44.47273" lon="0.93643">
        <ele>70.31</ele>
        <time>2014-09-13T13:26:18Z</time>
      </trkpt>
      <trkpt lat="44.47276" lon="0.93647">
        <ele>70.79</ele>
        <time>2014-09-13T13:26:19Z</time>
      </trkpt>
      <trkpt lat="44.47279" lon="0.93651">
        <ele>70.79</ele>
        <time>2014-09-13T13:26:20Z</time>
      </trkpt>
      <trkpt lat="44.4728" lon="0.93656">
        <ele>70.79</ele>
        <time>2014-09-13T13:26:21Z</time>
      </trkpt>
      <trkpt lat="44.47281" lon="0.93661">
        <ele>70.79</ele>
        <time>2014-09-13T13:26:22Z</time>
      </trkpt>
      <trkpt lat="44.47282" lon="0.93666">
        <ele>70.79</ele>
        <time>2014-09-13T13:26:23Z</time>
      </trkpt>
      <trkpt lat="44.47285" lon="0.9367">
        <ele>70.31</ele>
        <time>2014-09-13T13:26:24Z</time>
      </trkpt>
      <trkpt lat="44.47289" lon="0.93673">
        <ele>70.31</ele>
        <time>2014-09-13T13:26:25Z</time>
      </trkpt>
      <trkpt lat="44.47292" lon="0.93676">
        <ele>70.31</ele>
        <time>2014-09-13T13:26:26Z</time>
      </trkpt>
      <trkpt lat="44.47294" lon="0.93681">
        <ele>70.31</ele>
        <time>2014-09-13T13:26:27Z</time>
      </trkpt>
      <trkpt lat="44.47295" lon="0.93686">
        <ele>70.31</ele>
        <time>2014-09-13T13:26:28Z</time>
      </trkpt>
      <trkpt lat="44.47316" lon="0.93732">
        <ele>71.27</ele>
        <time>2014-09-13T13:26:39Z</time>
      </trkpt>
      <trkpt lat="44.47337" lon="0.93776">
        <ele>70.79</ele>
        <time>2014-09-13T13:26:49Z</time>
      </trkpt>
      <trkpt lat="44.4736" lon="0.93828">
        <ele>71.27</ele>
        <time>2014-09-13T13:27:01Z</time>
      </trkpt>
      <trkpt lat="44.47365" lon="0.9384">
        <ele>71.76</ele>
        <time>2014-09-13T13:27:03Z</time>
      </trkpt>
      <trkpt lat="44.47367" lon="0.93847">
        <ele>71.27</ele>
        <time>2014-09-13T13:27:04Z</time>
      </trkpt>
      <trkpt lat="44.47369" lon="0.93852">
        <ele>71.27</ele>
        <time>2014-09-13T13:27:05Z</time>
      </trkpt>
      <trkpt lat="44.4737" lon="0.93858">
        <ele>70.79</ele>
        <time>2014-09-13T13:27:06Z</time>
      </trkpt>
      <trkpt lat="44.47372" lon="0.93863">
        <ele>70.79</ele>
        <time>2014-09-13T13:27:07Z</time>
      </trkpt>
      <trkpt lat="44.47384" lon="0.93918">
        <ele>70.79</ele>
        <time>2014-09-13T13:27:19Z</time>
      </trkpt>
      <trkpt lat="44.47394" lon="0.93958">
        <ele>71.27</ele>
        <time>2014-09-13T13:27:30Z</time>
      </trkpt>
      <trkpt lat="44.47393" lon="0.93961">
        <ele>70.79</ele>
        <time>2014-09-13T13:27:31Z</time>
      </trkpt>
      <trkpt lat="44.47391" lon="0.93964">
        <ele>70.31</ele>
        <time>2014-09-13T13:27:33Z</time>
      </trkpt>
      <trkpt lat="44.4739" lon="0.93965">
        <ele>69.83</ele>
        <time>2014-09-13T13:27:34Z</time>
      </trkpt>
      <trkpt lat="44.47388" lon="0.93966">
        <ele>69.83</ele>
        <time>2014-09-13T13:27:35Z</time>
      </trkpt>
      <trkpt lat="44.47349" lon="0.93987">
        <ele>65.99</ele>
        <time>2014-09-13T13:27:52Z</time>
      </trkpt>
      <trkpt lat="44.47337" lon="0.93998">
        <ele>67.91</ele>
        <time>2014-09-13T13:28:04Z</time>
      </trkpt>
      <trkpt lat="44.4732" lon="0.94018">
        <ele>68.87</ele>
        <time>2014-09-13T13:28:13Z</time>
      </trkpt>
      <trkpt lat="44.4727" lon="0.94052">
        <ele>71.76</ele>
        <time>2014-09-13T13:28:28Z</time>
      </trkpt>
      <trkpt lat="44.47224" lon="0.94064">
        <ele>74.16</ele>
        <time>2014-09-13T13:28:43Z</time>
      </trkpt>
      <trkpt lat="44.47177" lon="0.94084">
        <ele>74.64</ele>
        <time>2014-09-13T13:28:57Z</time>
      </trkpt>
      <trkpt lat="44.47128" lon="0.94083">
        <ele>78</ele>
        <time>2014-09-13T13:29:10Z</time>
      </trkpt>
      <trkpt lat="44.47057" lon="0.94073">
        <ele>78.48</ele>
        <time>2014-09-13T13:29:26Z</time>
      </trkpt>
      <trkpt lat="44.47053" lon="0.94072">
        <ele>78.48</ele>
        <time>2014-09-13T13:29:27Z</time>
      </trkpt>
      <trkpt lat="44.46986" lon="0.94056">
        <ele>81.37</ele>
        <time>2014-09-13T13:29:43Z</time>
      </trkpt>
      <trkpt lat="44.46981" lon="0.94056">
        <ele>81.37</ele>
        <time>2014-09-13T13:29:44Z</time>
      </trkpt>
      <trkpt lat="44.46977" lon="0.94056">
        <ele>81.37</ele>
        <time>2014-09-13T13:29:45Z</time>
      </trkpt>
      <trkpt lat="44.46973" lon="0.94057">
        <ele>81.37</ele>
        <time>2014-09-13T13:29:46Z</time>
      </trkpt>
      <trkpt lat="44.46969" lon="0.94058">
        <ele>81.37</ele>
        <time>2014-09-13T13:29:47Z</time>
      </trkpt>
      <trkpt lat="44.46965" lon="0.94061">
        <ele>81.37</ele>
        <time>2014-09-13T13:29:48Z</time>
      </trkpt>
      <trkpt lat="44.46962" lon="0.94065">
        <ele>80.89</ele>
        <time>2014-09-13T13:29:49Z</time>
      </trkpt>
      <trkpt lat="44.46959" lon="0.94069">
        <ele>80.41</ele>
        <time>2014-09-13T13:29:50Z</time>
      </trkpt>
      <trkpt lat="44.46957" lon="0.94074">
        <ele>80.41</ele>
        <time>2014-09-13T13:29:51Z</time>
      </trkpt>
      <trkpt lat="44.46954" lon="0.94079">
        <ele>79.93</ele>
        <time>2014-09-13T13:29:52Z</time>
      </trkpt>
      <trkpt lat="44.46944" lon="0.94099">
        <ele>78.48</ele>
        <time>2014-09-13T13:29:56Z</time>
      </trkpt>
      <trkpt lat="44.4694" lon="0.94103">
        <ele>78</ele>
        <time>2014-09-13T13:29:57Z</time>
      </trkpt>
      <trkpt lat="44.46936" lon="0.94104">
        <ele>78</ele>
        <time>2014-09-13T13:29:58Z</time>
      </trkpt>
      <trkpt lat="44.46931" lon="0.94104">
        <ele>78</ele>
        <time>2014-09-13T13:29:59Z</time>
      </trkpt>
      <trkpt lat="44.46927" lon="0.94103">
        <ele>78</ele>
        <time>2014-09-13T13:30:00Z</time>
      </trkpt>
      <trkpt lat="44.46923" lon="0.94101">
        <ele>78</ele>
        <time>2014-09-13T13:30:01Z</time>
      </trkpt>
      <trkpt lat="44.46848" lon="0.94075">
        <ele>78.97</ele>
        <time>2014-09-13T13:30:18Z</time>
      </trkpt>
      <trkpt lat="44.46771" lon="0.94046">
        <ele>79.45</ele>
        <time>2014-09-13T13:30:35Z</time>
      </trkpt>
      <trkpt lat="44.46726" lon="0.94029">
        <ele>79.93</ele>
        <time>2014-09-13T13:30:45Z</time>
      </trkpt>
      <trkpt lat="44.46643" lon="0.93998">
        <ele>80.41</ele>
        <time>2014-09-13T13:31:03Z</time>
      </trkpt>
      <trkpt lat="44.46577" lon="0.93956">
        <ele>81.85</ele>
        <time>2014-09-13T13:31:18Z</time>
      </trkpt>
      <trkpt lat="44.46501" lon="0.93887">
        <ele>81.85</ele>
        <time>2014-09-13T13:31:36Z</time>
      </trkpt>
      <trkpt lat="44.46452" lon="0.9385">
        <ele>81.85</ele>
        <time>2014-09-13T13:31:47Z</time>
      </trkpt>
      <trkpt lat="44.46438" lon="0.93846">
        <ele>81.85</ele>
        <time>2014-09-13T13:31:50Z</time>
      </trkpt>
      <trkpt lat="44.46433" lon="0.93847">
        <ele>81.85</ele>
        <time>2014-09-13T13:31:51Z</time>
      </trkpt>
      <trkpt lat="44.46419" lon="0.9385">
        <ele>81.37</ele>
        <time>2014-09-13T13:31:54Z</time>
      </trkpt>
      <trkpt lat="44.46414" lon="0.9385">
        <ele>81.37</ele>
        <time>2014-09-13T13:31:55Z</time>
      </trkpt>
      <trkpt lat="44.46409" lon="0.93847">
        <ele>81.37</ele>
        <time>2014-09-13T13:31:56Z</time>
      </trkpt>
      <trkpt lat="44.46405" lon="0.93843">
        <ele>80.89</ele>
        <time>2014-09-13T13:31:57Z</time>
      </trkpt>
      <trkpt lat="44.46401" lon="0.93839">
        <ele>80.89</ele>
        <time>2014-09-13T13:31:58Z</time>
      </trkpt>
      <trkpt lat="44.46363" lon="0.93789">
        <ele>80.89</ele>
        <time>2014-09-13T13:32:08Z</time>
      </trkpt>
      <trkpt lat="44.46293" lon="0.93683">
        <ele>79.93</ele>
        <time>2014-09-13T13:32:27Z</time>
      </trkpt>
      <trkpt lat="44.46289" lon="0.93677">
        <ele>79.93</ele>
        <time>2014-09-13T13:32:28Z</time>
      </trkpt>
      <trkpt lat="44.46285" lon="0.93674">
        <ele>79.93</ele>
        <time>2014-09-13T13:32:29Z</time>
      </trkpt>
      <trkpt lat="44.4628" lon="0.93673">
        <ele>79.93</ele>
        <time>2014-09-13T13:32:30Z</time>
      </trkpt>
      <trkpt lat="44.46276" lon="0.93674">
        <ele>79.45</ele>
        <time>2014-09-13T13:32:31Z</time>
      </trkpt>
      <trkpt lat="44.46273" lon="0.93678">
        <ele>79.45</ele>
        <time>2014-09-13T13:32:32Z</time>
      </trkpt>
      <trkpt lat="44.4627" lon="0.93682">
        <ele>78.97</ele>
        <time>2014-09-13T13:32:33Z</time>
      </trkpt>
      <trkpt lat="44.46267" lon="0.93687">
        <ele>78.48</ele>
        <time>2014-09-13T13:32:34Z</time>
      </trkpt>
      <trkpt lat="44.46246" lon="0.93729">
        <ele>76.56</ele>
        <time>2014-09-13T13:32:42Z</time>
      </trkpt>
      <trkpt lat="44.46241" lon="0.93746">
        <ele>75.6</ele>
        <time>2014-09-13T13:32:45Z</time>
      </trkpt>
      <trkpt lat="44.46238" lon="0.93751">
        <ele>75.6</ele>
        <time>2014-09-13T13:32:46Z</time>
      </trkpt>
      <trkpt lat="44.46237" lon="0.93756">
        <ele>75.6</ele>
        <time>2014-09-13T13:32:47Z</time>
      </trkpt>
      <trkpt lat="44.46236" lon="0.93761">
        <ele>75.6</ele>
        <time>2014-09-13T13:32:48Z</time>
      </trkpt>
      <trkpt lat="44.46234" lon="0.93767">
        <ele>75.6</ele>
        <time>2014-09-13T13:32:49Z</time>
      </trkpt>
      <trkpt lat="44.46232" lon="0.93771">
        <ele>75.6</ele>
        <time>2014-09-13T13:32:50Z</time>
      </trkpt>
      <trkpt lat="44.46229" lon="0.93775">
        <ele>75.6</ele>
        <time>2014-09-13T13:32:51Z</time>
      </trkpt>
      <trkpt lat="44.46226" lon="0.93779">
        <ele>75.6</ele>
        <time>2014-09-13T13:32:52Z</time>
      </trkpt>
      <trkpt lat="44.46217" lon="0.93791">
        <ele>75.6</ele>
        <time>2014-09-13T13:32:55Z</time>
      </trkpt>
      <trkpt lat="44.46205" lon="0.93807">
        <ele>75.6</ele>
        <time>2014-09-13T13:32:59Z</time>
      </trkpt>
      <trkpt lat="44.4619" lon="0.93828">
        <ele>75.12</ele>
        <time>2014-09-13T13:33:04Z</time>
      </trkpt>
      <trkpt lat="44.46177" lon="0.93841">
        <ele>74.64</ele>
        <time>2014-09-13T13:33:08Z</time>
      </trkpt>
      <trkpt lat="44.46173" lon="0.93842">
        <ele>74.16</ele>
        <time>2014-09-13T13:33:09Z</time>
      </trkpt>
      <trkpt lat="44.46169" lon="0.93843">
        <ele>74.64</ele>
        <time>2014-09-13T13:33:10Z</time>
      </trkpt>
      <trkpt lat="44.46165" lon="0.93844">
        <ele>74.64</ele>
        <time>2014-09-13T13:33:11Z</time>
      </trkpt>
      <trkpt lat="44.46161" lon="0.93845">
        <ele>74.64</ele>
        <time>2014-09-13T13:33:12Z</time>
      </trkpt>
      <trkpt lat="44.46157" lon="0.93846">
        <ele>75.12</ele>
        <time>2014-09-13T13:33:13Z</time>
      </trkpt>
      <trkpt lat="44.46126" lon="0.93849">
        <ele>75.12</ele>
        <time>2014-09-13T13:33:21Z</time>
      </trkpt>
      <trkpt lat="44.46123" lon="0.93853">
        <ele>75.12</ele>
        <time>2014-09-13T13:33:22Z</time>
      </trkpt>
      <trkpt lat="44.46092" lon="0.93915">
        <ele>73.2</ele>
        <time>2014-09-13T13:33:36Z</time>
      </trkpt>
      <trkpt lat="44.46064" lon="0.93978">
        <ele>72.72</ele>
        <time>2014-09-13T13:33:49Z</time>
      </trkpt>
      <trkpt lat="44.46032" lon="0.94059">
        <ele>74.16</ele>
        <time>2014-09-13T13:34:05Z</time>
      </trkpt>
      <trkpt lat="44.45998" lon="0.94134">
        <ele>74.64</ele>
        <time>2014-09-13T13:34:21Z</time>
      </trkpt>
      <trkpt lat="44.45982" lon="0.94173">
        <ele>74.64</ele>
        <time>2014-09-13T13:34:29Z</time>
      </trkpt>
      <trkpt lat="44.45979" lon="0.94178">
        <ele>74.64</ele>
        <time>2014-09-13T13:34:30Z</time>
      </trkpt>
      <trkpt lat="44.4597" lon="0.942">
        <ele>74.64</ele>
        <time>2014-09-13T13:34:34Z</time>
      </trkpt>
      <trkpt lat="44.45931" lon="0.94286">
        <ele>77.04</ele>
        <time>2014-09-13T13:34:50Z</time>
      </trkpt>
      <trkpt lat="44.45908" lon="0.94342">
        <ele>78.48</ele>
        <time>2014-09-13T13:35:01Z</time>
      </trkpt>
      <trkpt lat="44.45906" lon="0.94347">
        <ele>78.48</ele>
        <time>2014-09-13T13:35:02Z</time>
      </trkpt>
      <trkpt lat="44.45882" lon="0.94403">
        <ele>80.89</ele>
        <time>2014-09-13T13:35:13Z</time>
      </trkpt>
      <trkpt lat="44.4588" lon="0.94408">
        <ele>80.89</ele>
        <time>2014-09-13T13:35:14Z</time>
      </trkpt>
      <trkpt lat="44.45848" lon="0.9449">
        <ele>84.73</ele>
        <time>2014-09-13T13:35:33Z</time>
      </trkpt>
      <trkpt lat="44.45847" lon="0.94491">
        <ele>84.73</ele>
        <time>2014-09-13T13:35:35Z</time>
      </trkpt>
      <trkpt lat="44.45846" lon="0.94492">
        <ele>85.21</ele>
        <time>2014-09-13T13:35:36Z</time>
      </trkpt>
      <trkpt lat="44.45845" lon="0.94492">
        <ele>85.21</ele>
        <time>2014-09-13T13:35:37Z</time>
      </trkpt>
      <trkpt lat="44.45844" lon="0.94491">
        <ele>85.69</ele>
        <time>2014-09-13T13:35:38Z</time>
      </trkpt>
      <trkpt lat="44.45842" lon="0.94491">
        <ele>85.69</ele>
        <time>2014-09-13T13:35:39Z</time>
      </trkpt>
      <trkpt lat="44.4584" lon="0.9449">
        <ele>85.69</ele>
        <time>2014-09-13T13:35:40Z</time>
      </trkpt>
      <trkpt lat="44.45796" lon="0.9448">
        <ele>88.58</ele>
        <time>2014-09-13T13:35:53Z</time>
      </trkpt>
      <trkpt lat="44.45737" lon="0.94478">
        <ele>92.42</ele>
        <time>2014-09-13T13:36:09Z</time>
      </trkpt>
      <trkpt lat="44.45698" lon="0.94479">
        <ele>96.27</ele>
        <time>2014-09-13T13:36:21Z</time>
      </trkpt>
      <trkpt lat="44.45663" lon="0.94481">
        <ele>102.52</ele>
        <time>2014-09-13T13:36:33Z</time>
      </trkpt>
      <trkpt lat="44.45626" lon="0.9448">
        <ele>107.81</ele>
        <time>2014-09-13T13:36:45Z</time>
      </trkpt>
      <trkpt lat="44.45598" lon="0.94478">
        <ele>110.69</ele>
        <time>2014-09-13T13:36:54Z</time>
      </trkpt>
      <trkpt lat="44.45568" lon="0.94482">
        <ele>113.09</ele>
        <time>2014-09-13T13:37:01Z</time>
      </trkpt>
      <trkpt lat="44.45513" lon="0.94484">
        <ele>113.57</ele>
        <time>2014-09-13T13:37:14Z</time>
      </trkpt>
      <trkpt lat="44.45489" lon="0.94487">
        <ele>114.53</ele>
        <time>2014-09-13T13:37:24Z</time>
      </trkpt>
      <trkpt lat="44.4546" lon="0.94487">
        <ele>116.46</ele>
        <time>2014-09-13T13:37:35Z</time>
      </trkpt>
      <trkpt lat="44.45437" lon="0.94487">
        <ele>120.78</ele>
        <time>2014-09-13T13:37:43Z</time>
      </trkpt>
      <trkpt lat="44.45433" lon="0.94483">
        <ele>122.22</ele>
        <time>2014-09-13T13:37:46Z</time>
      </trkpt>
      <trkpt lat="44.45432" lon="0.94476">
        <ele>123.67</ele>
        <time>2014-09-13T13:37:50Z</time>
      </trkpt>
      <trkpt lat="44.45432" lon="0.9447">
        <ele>124.63</ele>
        <time>2014-09-13T13:37:53Z</time>
      </trkpt>
      <trkpt lat="44.45426" lon="0.9446">
        <ele>125.59</ele>
        <time>2014-09-13T13:37:57Z</time>
      </trkpt>
      <trkpt lat="44.45413" lon="0.94436">
        <ele>129.43</ele>
        <time>2014-09-13T13:38:05Z</time>
      </trkpt>
      <trkpt lat="44.45412" lon="0.94427">
        <ele>129.92</ele>
        <time>2014-09-13T13:38:10Z</time>
      </trkpt>
      <trkpt lat="44.45386" lon="0.94385">
        <ele>134.72</ele>
        <time>2014-09-13T13:38:23Z</time>
      </trkpt>
      <trkpt lat="44.45361" lon="0.94364">
        <ele>133.76</ele>
        <time>2014-09-13T13:38:33Z</time>
      </trkpt>
      <trkpt lat="44.4533" lon="0.94343">
        <ele>130.4</ele>
        <time>2014-09-13T13:38:46Z</time>
      </trkpt>
      <trkpt lat="44.45329" lon="0.94342">
        <ele>130.4</ele>
        <time>2014-09-13T13:38:47Z</time>
      </trkpt>
      <trkpt lat="44.45308" lon="0.94311">
        <ele>126.55</ele>
        <time>2014-09-13T13:38:59Z</time>
      </trkpt>
      <trkpt lat="44.45283" lon="0.94293">
        <ele>119.82</ele>
        <time>2014-09-13T13:39:09Z</time>
      </trkpt>
      <trkpt lat="44.4528" lon="0.94293">
        <ele>119.82</ele>
        <time>2014-09-13T13:39:10Z</time>
      </trkpt>
      <trkpt lat="44.45272" lon="0.94302">
        <ele>118.86</ele>
        <time>2014-09-13T13:39:15Z</time>
      </trkpt>
      <trkpt lat="44.45267" lon="0.94311">
        <ele>118.38</ele>
        <time>2014-09-13T13:39:19Z</time>
      </trkpt>
      <trkpt lat="44.45262" lon="0.94331">
        <ele>117.9</ele>
        <time>2014-09-13T13:39:26Z</time>
      </trkpt>
      <trkpt lat="44.45255" lon="0.94343">
        <ele>117.42</ele>
        <time>2014-09-13T13:39:33Z</time>
      </trkpt>
      <trkpt lat="44.4525" lon="0.94349">
        <ele>117.9</ele>
        <time>2014-09-13T13:39:37Z</time>
      </trkpt>
      <trkpt lat="44.45245" lon="0.94357">
        <ele>117.9</ele>
        <time>2014-09-13T13:39:41Z</time>
      </trkpt>
      <trkpt lat="44.45226" lon="0.94386">
        <ele>120.3</ele>
        <time>2014-09-13T13:39:55Z</time>
      </trkpt>
      <trkpt lat="44.45209" lon="0.94412">
        <ele>126.07</ele>
        <time>2014-09-13T13:40:08Z</time>
      </trkpt>
      <trkpt lat="44.45185" lon="0.94438">
        <ele>131.84</ele>
        <time>2014-09-13T13:40:22Z</time>
      </trkpt>
      <trkpt lat="44.45181" lon="0.94445">
        <ele>132.8</ele>
        <time>2014-09-13T13:40:25Z</time>
      </trkpt>
      <trkpt lat="44.45161" lon="0.94478">
        <ele>135.68</ele>
        <time>2014-09-13T13:40:39Z</time>
      </trkpt>
      <trkpt lat="44.45155" lon="0.9449">
        <ele>130.88</ele>
        <time>2014-09-13T13:40:51Z</time>
      </trkpt>
      <trkpt lat="44.45155" lon="0.94491">
        <ele>128.95</ele>
        <time>2014-09-13T13:41:00Z</time>
      </trkpt>
      <trkpt lat="44.45153" lon="0.94491">
        <ele>126.07</ele>
        <time>2014-09-13T13:41:17Z</time>
      </trkpt>
      <trkpt lat="44.45152" lon="0.94491">
        <ele>122.22</ele>
        <time>2014-09-13T13:41:39Z</time>
      </trkpt>
      <trkpt lat="44.45152" lon="0.94488">
        <ele>122.22</ele>
        <time>2014-09-13T13:42:11Z</time>
      </trkpt>
      <trkpt lat="44.45152" lon="0.94489">
        <ele>122.22</ele>
        <time>2014-09-13T13:42:32Z</time>
      </trkpt>
      <trkpt lat="44.45153" lon="0.9449">
        <ele>122.71</ele>
        <time>2014-09-13T13:42:49Z</time>
      </trkpt>
      <trkpt lat="44.45153" lon="0.94491">
        <ele>123.19</ele>
        <time>2014-09-13T13:43:11Z</time>
      </trkpt>
      <trkpt lat="44.45154" lon="0.94491">
        <ele>123.19</ele>
        <time>2014-09-13T13:43:25Z</time>
      </trkpt>
      <trkpt lat="44.45153" lon="0.94491">
        <ele>123.19</ele>
        <time>2014-09-13T13:43:50Z</time>
      </trkpt>
      <trkpt lat="44.45154" lon="0.94491">
        <ele>123.19</ele>
        <time>2014-09-13T13:44:09Z</time>
      </trkpt>
      <trkpt lat="44.45154" lon="0.94493">
        <ele>123.19</ele>
        <time>2014-09-13T13:44:27Z</time>
      </trkpt>
      <trkpt lat="44.45155" lon="0.94502">
        <ele>122.71</ele>
        <time>2014-09-13T13:44:31Z</time>
      </trkpt>
      <trkpt lat="44.45189" lon="0.94556">
        <ele>122.71</ele>
        <time>2014-09-13T13:44:47Z</time>
      </trkpt>
      <trkpt lat="44.45193" lon="0.94563">
        <ele>122.22</ele>
        <time>2014-09-13T13:44:49Z</time>
      </trkpt>
      <trkpt lat="44.45184" lon="0.94595">
        <ele>121.26</ele>
        <time>2014-09-13T13:44:58Z</time>
      </trkpt>
      <trkpt lat="44.45138" lon="0.94654">
        <ele>121.26</ele>
        <time>2014-09-13T13:45:16Z</time>
      </trkpt>
      <trkpt lat="44.45084" lon="0.9471">
        <ele>122.22</ele>
        <time>2014-09-13T13:45:34Z</time>
      </trkpt>
      <trkpt lat="44.45081" lon="0.9474">
        <ele>121.74</ele>
        <time>2014-09-13T13:45:43Z</time>
      </trkpt>
      <trkpt lat="44.45088" lon="0.94787">
        <ele>121.74</ele>
        <time>2014-09-13T13:45:51Z</time>
      </trkpt>
      <trkpt lat="44.45088" lon="0.94793">
        <ele>121.74</ele>
        <time>2014-09-13T13:45:52Z</time>
      </trkpt>
      <trkpt lat="44.4509" lon="0.94816">
        <ele>121.26</ele>
        <time>2014-09-13T13:45:56Z</time>
      </trkpt>
      <trkpt lat="44.45087" lon="0.9483">
        <ele>120.3</ele>
        <time>2014-09-13T13:45:58Z</time>
      </trkpt>
      <trkpt lat="44.45059" lon="0.94926">
        <ele>116.94</ele>
        <time>2014-09-13T13:46:13Z</time>
      </trkpt>
      <trkpt lat="44.45059" lon="0.94932">
        <ele>116.94</ele>
        <time>2014-09-13T13:46:14Z</time>
      </trkpt>
      <trkpt lat="44.45061" lon="0.94937">
        <ele>116.94</ele>
        <time>2014-09-13T13:46:15Z</time>
      </trkpt>
      <trkpt lat="44.45108" lon="0.94961">
        <ele>117.42</ele>
        <time>2014-09-13T13:46:26Z</time>
      </trkpt>
      <trkpt lat="44.45126" lon="0.94968">
        <ele>117.9</ele>
        <time>2014-09-13T13:46:30Z</time>
      </trkpt>
      <trkpt lat="44.45141" lon="0.94973">
        <ele>117.42</ele>
        <time>2014-09-13T13:46:33Z</time>
      </trkpt>
      <trkpt lat="44.45183" lon="0.94985">
        <ele>117.9</ele>
        <time>2014-09-13T13:46:45Z</time>
      </trkpt>
      <trkpt lat="44.45192" lon="0.94986">
        <ele>118.86</ele>
        <time>2014-09-13T13:46:48Z</time>
      </trkpt>
      <trkpt lat="44.4519" lon="0.95014">
        <ele>119.34</ele>
        <time>2014-09-13T13:46:58Z</time>
      </trkpt>
      <trkpt lat="44.45182" lon="0.9504">
        <ele>119.82</ele>
        <time>2014-09-13T13:47:05Z</time>
      </trkpt>
      <trkpt lat="44.45175" lon="0.95104">
        <ele>122.22</ele>
        <time>2014-09-13T13:47:18Z</time>
      </trkpt>
      <trkpt lat="44.45169" lon="0.9518">
        <ele>123.19</ele>
        <time>2014-09-13T13:47:32Z</time>
      </trkpt>
      <trkpt lat="44.45167" lon="0.9519">
        <ele>123.19</ele>
        <time>2014-09-13T13:47:34Z</time>
      </trkpt>
      <trkpt lat="44.45147" lon="0.95219">
        <ele>123.19</ele>
        <time>2014-09-13T13:47:41Z</time>
      </trkpt>
      <trkpt lat="44.45095" lon="0.95288">
        <ele>122.22</ele>
        <time>2014-09-13T13:47:57Z</time>
      </trkpt>
      <trkpt lat="44.45038" lon="0.95361">
        <ele>123.19</ele>
        <time>2014-09-13T13:48:14Z</time>
      </trkpt>
      <trkpt lat="44.45005" lon="0.95402">
        <ele>123.19</ele>
        <time>2014-09-13T13:48:27Z</time>
      </trkpt>
      <trkpt lat="44.45006" lon="0.95403">
        <ele>123.67</ele>
        <time>2014-09-13T13:48:43Z</time>
      </trkpt>
      <trkpt lat="44.45007" lon="0.95412">
        <ele>124.63</ele>
        <time>2014-09-13T13:48:46Z</time>
      </trkpt>
      <trkpt lat="44.45009" lon="0.95416">
        <ele>125.11</ele>
        <time>2014-09-13T13:48:47Z</time>
      </trkpt>
      <trkpt lat="44.45012" lon="0.95421">
        <ele>125.11</ele>
        <time>2014-09-13T13:48:48Z</time>
      </trkpt>
      <trkpt lat="44.45054" lon="0.95497">
        <ele>125.59</ele>
        <time>2014-09-13T13:49:06Z</time>
      </trkpt>
      <trkpt lat="44.45062" lon="0.95514">
        <ele>125.59</ele>
        <time>2014-09-13T13:49:10Z</time>
      </trkpt>
      <trkpt lat="44.4506" lon="0.95518">
        <ele>125.59</ele>
        <time>2014-09-13T13:49:11Z</time>
      </trkpt>
      <trkpt lat="44.45058" lon="0.95521">
        <ele>126.07</ele>
        <time>2014-09-13T13:49:12Z</time>
      </trkpt>
      <trkpt lat="44.45055" lon="0.95523">
        <ele>125.59</ele>
        <time>2014-09-13T13:49:13Z</time>
      </trkpt>
      <trkpt lat="44.45052" lon="0.95525">
        <ele>125.59</ele>
        <time>2014-09-13T13:49:14Z</time>
      </trkpt>
      <trkpt lat="44.45048" lon="0.95528">
        <ele>125.59</ele>
        <time>2014-09-13T13:49:15Z</time>
      </trkpt>
      <trkpt lat="44.4499" lon="0.95576">
        <ele>127.03</ele>
        <time>2014-09-13T13:49:31Z</time>
      </trkpt>
      <trkpt lat="44.44935" lon="0.9561">
        <ele>129.43</ele>
        <time>2014-09-13T13:49:47Z</time>
      </trkpt>
      <trkpt lat="44.44898" lon="0.95641">
        <ele>131.84</ele>
        <time>2014-09-13T13:49:59Z</time>
      </trkpt>
      <trkpt lat="44.44894" lon="0.95642">
        <ele>131.84</ele>
        <time>2014-09-13T13:50:00Z</time>
      </trkpt>
      <trkpt lat="44.44891" lon="0.95641">
        <ele>132.32</ele>
        <time>2014-09-13T13:50:01Z</time>
      </trkpt>
      <trkpt lat="44.44825" lon="0.95609">
        <ele>136.16</ele>
        <time>2014-09-13T13:50:19Z</time>
      </trkpt>
      <trkpt lat="44.44804" lon="0.95598">
        <ele>136.16</ele>
        <time>2014-09-13T13:50:24Z</time>
      </trkpt>
      <trkpt lat="44.44768" lon="0.95593">
        <ele>135.2</ele>
        <time>2014-09-13T13:50:32Z</time>
      </trkpt>
      <trkpt lat="44.44683" lon="0.95588">
        <ele>134.24</ele>
        <time>2014-09-13T13:50:51Z</time>
      </trkpt>
      <trkpt lat="44.44609" lon="0.95576">
        <ele>131.84</ele>
        <time>2014-09-13T13:51:08Z</time>
      </trkpt>
      <trkpt lat="44.44597" lon="0.95574">
        <ele>131.36</ele>
        <time>2014-09-13T13:51:11Z</time>
      </trkpt>
      <trkpt lat="44.4456" lon="0.95577">
        <ele>128.95</ele>
        <time>2014-09-13T13:51:21Z</time>
      </trkpt>
      <trkpt lat="44.44556" lon="0.95579">
        <ele>128.47</ele>
        <time>2014-09-13T13:51:22Z</time>
      </trkpt>
      <trkpt lat="44.44536" lon="0.9559">
        <ele>127.51</ele>
        <time>2014-09-13T13:51:26Z</time>
      </trkpt>
      <trkpt lat="44.44459" lon="0.95663">
        <ele>127.99</ele>
        <time>2014-09-13T13:51:45Z</time>
      </trkpt>
      <trkpt lat="44.44425" lon="0.95695">
        <ele>129.43</ele>
        <time>2014-09-13T13:51:59Z</time>
      </trkpt>
      <trkpt lat="44.44424" lon="0.95694">
        <ele>129.43</ele>
        <time>2014-09-13T13:52:00Z</time>
      </trkpt>
      <trkpt lat="44.44424" lon="0.95693">
        <ele>129.43</ele>
        <time>2014-09-13T13:52:01Z</time>
      </trkpt>
      <trkpt lat="44.44424" lon="0.95691">
        <ele>129.43</ele>
        <time>2014-09-13T13:52:02Z</time>
      </trkpt>
      <trkpt lat="44.44425" lon="0.9569">
        <ele>128.95</ele>
        <time>2014-09-13T13:52:14Z</time>
      </trkpt>
      <trkpt lat="44.44425" lon="0.9569">
        <ele>129.43</ele>
        <time>2014-09-13T13:52:31Z</time>
      </trkpt>
      <trkpt lat="44.44426" lon="0.95691">
        <ele>129.92</ele>
        <time>2014-09-13T13:52:46Z</time>
      </trkpt>
      <trkpt lat="44.44425" lon="0.95689">
        <ele>129.92</ele>
        <time>2014-09-13T13:52:47Z</time>
      </trkpt>
      <trkpt lat="44.44424" lon="0.95686">
        <ele>129.92</ele>
        <time>2014-09-13T13:52:48Z</time>
      </trkpt>
      <trkpt lat="44.44423" lon="0.95682">
        <ele>129.92</ele>
        <time>2014-09-13T13:52:49Z</time>
      </trkpt>
      <trkpt lat="44.44421" lon="0.95677">
        <ele>129.92</ele>
        <time>2014-09-13T13:52:50Z</time>
      </trkpt>
      <trkpt lat="44.44392" lon="0.95602">
        <ele>127.99</ele>
        <time>2014-09-13T13:53:01Z</time>
      </trkpt>
      <trkpt lat="44.44342" lon="0.95474">
        <ele>124.15</ele>
        <time>2014-09-13T13:53:18Z</time>
      </trkpt>
      <trkpt lat="44.44307" lon="0.95389">
        <ele>119.82</ele>
        <time>2014-09-13T13:53:29Z</time>
      </trkpt>
      <trkpt lat="44.44303" lon="0.95386">
        <ele>119.34</ele>
        <time>2014-09-13T13:53:30Z</time>
      </trkpt>
      <trkpt lat="44.44298" lon="0.95384">
        <ele>119.34</ele>
        <time>2014-09-13T13:53:31Z</time>
      </trkpt>
      <trkpt lat="44.44293" lon="0.95383">
        <ele>119.34</ele>
        <time>2014-09-13T13:53:32Z</time>
      </trkpt>
      <trkpt lat="44.4429" lon="0.95384">
        <ele>119.34</ele>
        <time>2014-09-13T13:53:33Z</time>
      </trkpt>
      <trkpt lat="44.44288" lon="0.95387">
        <ele>118.86</ele>
        <time>2014-09-13T13:53:34Z</time>
      </trkpt>
      <trkpt lat="44.44285" lon="0.9539">
        <ele>118.86</ele>
        <time>2014-09-13T13:53:35Z</time>
      </trkpt>
      <trkpt lat="44.44282" lon="0.95392">
        <ele>118.38</ele>
        <time>2014-09-13T13:53:36Z</time>
      </trkpt>
      <trkpt lat="44.44278" lon="0.95395">
        <ele>117.9</ele>
        <time>2014-09-13T13:53:37Z</time>
      </trkpt>
      <trkpt lat="44.44275" lon="0.95399">
        <ele>117.9</ele>
        <time>2014-09-13T13:53:38Z</time>
      </trkpt>
      <trkpt lat="44.44268" lon="0.95405">
        <ele>117.42</ele>
        <time>2014-09-13T13:53:40Z</time>
      </trkpt>
      <trkpt lat="44.44222" lon="0.95443">
        <ele>113.57</ele>
        <time>2014-09-13T13:53:52Z</time>
      </trkpt>
      <trkpt lat="44.44164" lon="0.95494">
        <ele>110.21</ele>
        <time>2014-09-13T13:54:06Z</time>
      </trkpt>
      <trkpt lat="44.44115" lon="0.95539">
        <ele>114.05</ele>
        <time>2014-09-13T13:54:20Z</time>
      </trkpt>
      <trkpt lat="44.44058" lon="0.95592">
        <ele>115.5</ele>
        <time>2014-09-13T13:54:36Z</time>
      </trkpt>
      <trkpt lat="44.44028" lon="0.95622">
        <ele>115.01</ele>
        <time>2014-09-13T13:54:43Z</time>
      </trkpt>
      <trkpt lat="44.44014" lon="0.95644">
        <ele>114.05</ele>
        <time>2014-09-13T13:54:47Z</time>
      </trkpt>
      <trkpt lat="44.43982" lon="0.95669">
        <ele>113.57</ele>
        <time>2014-09-13T13:54:54Z</time>
      </trkpt>
      <trkpt lat="44.43962" lon="0.9567">
        <ele>113.09</ele>
        <time>2014-09-13T13:54:58Z</time>
      </trkpt>
      <trkpt lat="44.43936" lon="0.9568">
        <ele>111.65</ele>
        <time>2014-09-13T13:55:03Z</time>
      </trkpt>
      <trkpt lat="44.43885" lon="0.95706">
        <ele>106.84</ele>
        <time>2014-09-13T13:55:11Z</time>
      </trkpt>
      <trkpt lat="44.43867" lon="0.95706">
        <ele>106.36</ele>
        <time>2014-09-13T13:55:14Z</time>
      </trkpt>
      <trkpt lat="44.43825" lon="0.95712">
        <ele>108.77</ele>
        <time>2014-09-13T13:55:26Z</time>
      </trkpt>
      <trkpt lat="44.43776" lon="0.95714">
        <ele>112.61</ele>
        <time>2014-09-13T13:55:44Z</time>
      </trkpt>
      <trkpt lat="44.43733" lon="0.9571">
        <ele>114.53</ele>
        <time>2014-09-13T13:56:00Z</time>
      </trkpt>
      <trkpt lat="44.43732" lon="0.95696">
        <ele>115.98</ele>
        <time>2014-09-13T13:56:06Z</time>
      </trkpt>
      <trkpt lat="44.43749" lon="0.95665">
        <ele>118.86</ele>
        <time>2014-09-13T13:56:19Z</time>
      </trkpt>
      <trkpt lat="44.4377" lon="0.95627">
        <ele>123.19</ele>
        <time>2014-09-13T13:56:33Z</time>
      </trkpt>
      <trkpt lat="44.43796" lon="0.95589">
        <ele>124.63</ele>
        <time>2014-09-13T13:56:47Z</time>
      </trkpt>
      <trkpt lat="44.43812" lon="0.95549">
        <ele>123.19</ele>
        <time>2014-09-13T13:56:58Z</time>
      </trkpt>
      <trkpt lat="44.43835" lon="0.95486">
        <ele>118.86</ele>
        <time>2014-09-13T13:57:13Z</time>
      </trkpt>
      <trkpt lat="44.43846" lon="0.95448">
        <ele>116.46</ele>
        <time>2014-09-13T13:57:25Z</time>
      </trkpt>
      <trkpt lat="44.4384" lon="0.9539">
        <ele>114.05</ele>
        <time>2014-09-13T13:57:39Z</time>
      </trkpt>
      <trkpt lat="44.43842" lon="0.95347">
        <ele>111.65</ele>
        <time>2014-09-13T13:57:48Z</time>
      </trkpt>
      <trkpt lat="44.43851" lon="0.95328">
        <ele>112.13</ele>
        <time>2014-09-13T13:57:52Z</time>
      </trkpt>
      <trkpt lat="44.43865" lon="0.95266">
        <ele>113.09</ele>
        <time>2014-09-13T13:58:03Z</time>
      </trkpt>
      <trkpt lat="44.43865" lon="0.95223">
        <ele>115.5</ele>
        <time>2014-09-13T13:58:12Z</time>
      </trkpt>
      <trkpt lat="44.43865" lon="0.95183">
        <ele>121.26</ele>
        <time>2014-09-13T13:58:23Z</time>
      </trkpt>
      <trkpt lat="44.43864" lon="0.95163">
        <ele>123.19</ele>
        <time>2014-09-13T13:58:29Z</time>
      </trkpt>
      <trkpt lat="44.43864" lon="0.95158">
        <ele>122.71</ele>
        <time>2014-09-13T13:58:31Z</time>
      </trkpt>
      <trkpt lat="44.43861" lon="0.95149">
        <ele>122.71</ele>
        <time>2014-09-13T13:58:35Z</time>
      </trkpt>
      <trkpt lat="44.43862" lon="0.95126">
        <ele>125.11</ele>
        <time>2014-09-13T13:58:43Z</time>
      </trkpt>
      <trkpt lat="44.43866" lon="0.95105">
        <ele>119.34</ele>
        <time>2014-09-13T13:58:54Z</time>
      </trkpt>
      <trkpt lat="44.43865" lon="0.95099">
        <ele>109.73</ele>
        <time>2014-09-13T13:59:15Z</time>
      </trkpt>
      <trkpt lat="44.4387" lon="0.95095">
        <ele>107.32</ele>
        <time>2014-09-13T13:59:35Z</time>
      </trkpt>
      <trkpt lat="44.43887" lon="0.95056">
        <ele>107.81</ele>
        <time>2014-09-13T13:59:48Z</time>
      </trkpt>
      <trkpt lat="44.43887" lon="0.95053">
        <ele>107.81</ele>
        <time>2014-09-13T13:59:49Z</time>
      </trkpt>
      <trkpt lat="44.43882" lon="0.95028">
        <ele>111.65</ele>
        <time>2014-09-13T14:00:00Z</time>
      </trkpt>
      <trkpt lat="44.43873" lon="0.95016">
        <ele>112.61</ele>
        <time>2014-09-13T14:00:06Z</time>
      </trkpt>
      <trkpt lat="44.43849" lon="0.94987">
        <ele>109.25</ele>
        <time>2014-09-13T14:00:21Z</time>
      </trkpt>
      <trkpt lat="44.43839" lon="0.94977">
        <ele>109.25</ele>
        <time>2014-09-13T14:00:27Z</time>
      </trkpt>
      <trkpt lat="44.4383" lon="0.94957">
        <ele>109.73</ele>
        <time>2014-09-13T14:00:35Z</time>
      </trkpt>
      <trkpt lat="44.43825" lon="0.94953">
        <ele>110.21</ele>
        <time>2014-09-13T14:00:38Z</time>
      </trkpt>
      <trkpt lat="44.43817" lon="0.94942">
        <ele>110.69</ele>
        <time>2014-09-13T14:00:45Z</time>
      </trkpt>
      <trkpt lat="44.43804" lon="0.94913">
        <ele>114.53</ele>
        <time>2014-09-13T14:00:58Z</time>
      </trkpt>
      <trkpt lat="44.43796" lon="0.9489">
        <ele>118.38</ele>
        <time>2014-09-13T14:01:08Z</time>
      </trkpt>
      <trkpt lat="44.43792" lon="0.94869">
        <ele>122.22</ele>
        <time>2014-09-13T14:01:18Z</time>
      </trkpt>
      <trkpt lat="44.43791" lon="0.94857">
        <ele>124.15</ele>
        <time>2014-09-13T14:01:23Z</time>
      </trkpt>
      <trkpt lat="44.4379" lon="0.94839">
        <ele>129.92</ele>
        <time>2014-09-13T14:01:31Z</time>
      </trkpt>
      <trkpt lat="44.43787" lon="0.94809">
        <ele>137.13</ele>
        <time>2014-09-13T14:01:42Z</time>
      </trkpt>
      <trkpt lat="44.43787" lon="0.94806">
        <ele>138.09</ele>
        <time>2014-09-13T14:01:43Z</time>
      </trkpt>
      <trkpt lat="44.43787" lon="0.94794">
        <ele>141.45</ele>
        <time>2014-09-13T14:01:48Z</time>
      </trkpt>
      <trkpt lat="44.43784" lon="0.94765">
        <ele>147.22</ele>
        <time>2014-09-13T14:02:00Z</time>
      </trkpt>
      <trkpt lat="44.43781" lon="0.94753">
        <ele>147.22</ele>
        <time>2014-09-13T14:02:04Z</time>
      </trkpt>
      <trkpt lat="44.4377" lon="0.9472">
        <ele>148.18</ele>
        <time>2014-09-13T14:02:17Z</time>
      </trkpt>
      <trkpt lat="44.43759" lon="0.94677">
        <ele>143.85</ele>
        <time>2014-09-13T14:02:30Z</time>
      </trkpt>
      <trkpt lat="44.43744" lon="0.94632">
        <ele>137.61</ele>
        <time>2014-09-13T14:02:43Z</time>
      </trkpt>
      <trkpt lat="44.43736" lon="0.94607">
        <ele>132.32</ele>
        <time>2014-09-13T14:02:55Z</time>
      </trkpt>
      <trkpt lat="44.43737" lon="0.94607">
        <ele>130.4</ele>
        <time>2014-09-13T14:03:13Z</time>
      </trkpt>
      <trkpt lat="44.43737" lon="0.94607">
        <ele>128.95</ele>
        <time>2014-09-13T14:03:30Z</time>
      </trkpt>
      <trkpt lat="44.43737" lon="0.94606">
        <ele>127.51</ele>
        <time>2014-09-13T14:03:52Z</time>
      </trkpt>
      <trkpt lat="44.43737" lon="0.94606">
        <ele>126.55</ele>
        <time>2014-09-13T14:04:24Z</time>
      </trkpt>
      <trkpt lat="44.43736" lon="0.94606">
        <ele>127.03</ele>
        <time>2014-09-13T14:04:48Z</time>
      </trkpt>
      <trkpt lat="44.43736" lon="0.94605">
        <ele>126.55</ele>
        <time>2014-09-13T14:05:14Z</time>
      </trkpt>
      <trkpt lat="44.43771" lon="0.94575">
        <ele>127.51</ele>
        <time>2014-09-13T14:05:27Z</time>
      </trkpt>
      <trkpt lat="44.43783" lon="0.94569">
        <ele>127.51</ele>
        <time>2014-09-13T14:05:30Z</time>
      </trkpt>
      <trkpt lat="44.43786" lon="0.94566">
        <ele>127.03</ele>
        <time>2014-09-13T14:05:31Z</time>
      </trkpt>
      <trkpt lat="44.43789" lon="0.94563">
        <ele>127.03</ele>
        <time>2014-09-13T14:05:32Z</time>
      </trkpt>
      <trkpt lat="44.43791" lon="0.94561">
        <ele>127.03</ele>
        <time>2014-09-13T14:05:33Z</time>
      </trkpt>
      <trkpt lat="44.43793" lon="0.94559">
        <ele>127.03</ele>
        <time>2014-09-13T14:05:34Z</time>
      </trkpt>
      <trkpt lat="44.43804" lon="0.94546">
        <ele>126.55</ele>
        <time>2014-09-13T14:05:38Z</time>
      </trkpt>
      <trkpt lat="44.43825" lon="0.94512">
        <ele>125.59</ele>
        <time>2014-09-13T14:05:45Z</time>
      </trkpt>
      <trkpt lat="44.43851" lon="0.94439">
        <ele>124.63</ele>
        <time>2014-09-13T14:05:56Z</time>
      </trkpt>
      <trkpt lat="44.43852" lon="0.94432">
        <ele>124.63</ele>
        <time>2014-09-13T14:05:57Z</time>
      </trkpt>
      <trkpt lat="44.43853" lon="0.9441">
        <ele>124.63</ele>
        <time>2014-09-13T14:06:00Z</time>
      </trkpt>
      <trkpt lat="44.43857" lon="0.94376">
        <ele>125.11</ele>
        <time>2014-09-13T14:06:05Z</time>
      </trkpt>
      <trkpt lat="44.43859" lon="0.9437">
        <ele>125.59</ele>
        <time>2014-09-13T14:06:06Z</time>
      </trkpt>
      <trkpt lat="44.43861" lon="0.94364">
        <ele>125.59</ele>
        <time>2014-09-13T14:06:07Z</time>
      </trkpt>
      <trkpt lat="44.43864" lon="0.94359">
        <ele>125.59</ele>
        <time>2014-09-13T14:06:08Z</time>
      </trkpt>
      <trkpt lat="44.43867" lon="0.94355">
        <ele>125.59</ele>
        <time>2014-09-13T14:06:09Z</time>
      </trkpt>
      <trkpt lat="44.4387" lon="0.9435">
        <ele>125.59</ele>
        <time>2014-09-13T14:06:10Z</time>
      </trkpt>
      <trkpt lat="44.43896" lon="0.943">
        <ele>127.51</ele>
        <time>2014-09-13T14:06:23Z</time>
      </trkpt>
      <trkpt lat="44.4391" lon="0.94269">
        <ele>128.95</ele>
        <time>2014-09-13T14:06:33Z</time>
      </trkpt>
      <trkpt lat="44.43935" lon="0.94229">
        <ele>130.88</ele>
        <time>2014-09-13T14:06:43Z</time>
      </trkpt>
      <trkpt lat="44.43979" lon="0.94169">
        <ele>127.03</ele>
        <time>2014-09-13T14:06:56Z</time>
      </trkpt>
      <trkpt lat="44.43995" lon="0.9415">
        <ele>126.07</ele>
        <time>2014-09-13T14:07:00Z</time>
      </trkpt>
      <trkpt lat="44.44036" lon="0.94075">
        <ele>125.59</ele>
        <time>2014-09-13T14:07:13Z</time>
      </trkpt>
      <trkpt lat="44.4404" lon="0.94069">
        <ele>125.11</ele>
        <time>2014-09-13T14:07:14Z</time>
      </trkpt>
      <trkpt lat="44.44044" lon="0.94063">
        <ele>124.63</ele>
        <time>2014-09-13T14:07:15Z</time>
      </trkpt>
      <trkpt lat="44.44063" lon="0.94027">
        <ele>124.15</ele>
        <time>2014-09-13T14:07:21Z</time>
      </trkpt>
      <trkpt lat="44.44102" lon="0.93949">
        <ele>122.71</ele>
        <time>2014-09-13T14:07:36Z</time>
      </trkpt>
      <trkpt lat="44.44108" lon="0.93941">
        <ele>122.22</ele>
        <time>2014-09-13T14:07:41Z</time>
      </trkpt>
      <trkpt lat="44.44109" lon="0.93938">
        <ele>122.22</ele>
        <time>2014-09-13T14:07:42Z</time>
      </trkpt>
      <trkpt lat="44.4411" lon="0.93934">
        <ele>122.22</ele>
        <time>2014-09-13T14:07:43Z</time>
      </trkpt>
      <trkpt lat="44.44111" lon="0.9393">
        <ele>122.22</ele>
        <time>2014-09-13T14:07:44Z</time>
      </trkpt>
      <trkpt lat="44.4413" lon="0.93836">
        <ele>124.63</ele>
        <time>2014-09-13T14:08:00Z</time>
      </trkpt>
      <trkpt lat="44.44151" lon="0.93721">
        <ele>121.74</ele>
        <time>2014-09-13T14:08:17Z</time>
      </trkpt>
      <trkpt lat="44.44169" lon="0.93613">
        <ele>118.38</ele>
        <time>2014-09-13T14:08:30Z</time>
      </trkpt>
      <trkpt lat="44.44168" lon="0.93595">
        <ele>117.9</ele>
        <time>2014-09-13T14:08:32Z</time>
      </trkpt>
      <trkpt lat="44.44168" lon="0.93587">
        <ele>117.9</ele>
        <time>2014-09-13T14:08:33Z</time>
      </trkpt>
      <trkpt lat="44.44166" lon="0.93578">
        <ele>117.42</ele>
        <time>2014-09-13T14:08:34Z</time>
      </trkpt>
      <trkpt lat="44.44164" lon="0.9357">
        <ele>117.42</ele>
        <time>2014-09-13T14:08:35Z</time>
      </trkpt>
      <trkpt lat="44.44161" lon="0.93563">
        <ele>117.42</ele>
        <time>2014-09-13T14:08:36Z</time>
      </trkpt>
      <trkpt lat="44.44157" lon="0.93557">
        <ele>117.42</ele>
        <time>2014-09-13T14:08:37Z</time>
      </trkpt>
      <trkpt lat="44.44136" lon="0.93523">
        <ele>116.94</ele>
        <time>2014-09-13T14:08:47Z</time>
      </trkpt>
      <trkpt lat="44.44132" lon="0.93525">
        <ele>116.46</ele>
        <time>2014-09-13T14:08:57Z</time>
      </trkpt>
      <trkpt lat="44.44131" lon="0.93527">
        <ele>116.46</ele>
        <time>2014-09-13T14:09:19Z</time>
      </trkpt>
      <trkpt lat="44.44131" lon="0.93528">
        <ele>116.46</ele>
        <time>2014-09-13T14:09:44Z</time>
      </trkpt>
      <trkpt lat="44.44131" lon="0.93527">
        <ele>116.46</ele>
        <time>2014-09-13T14:10:13Z</time>
      </trkpt>
      <trkpt lat="44.44131" lon="0.93528">
        <ele>117.42</ele>
        <time>2014-09-13T14:10:52Z</time>
      </trkpt>
      <trkpt lat="44.44131" lon="0.93528">
        <ele>117.42</ele>
        <time>2014-09-13T14:11:23Z</time>
      </trkpt>
      <trkpt lat="44.4413" lon="0.93528">
        <ele>116.94</ele>
        <time>2014-09-13T14:12:02Z</time>
      </trkpt>
      <trkpt lat="44.44131" lon="0.93528">
        <ele>117.42</ele>
        <time>2014-09-13T14:12:37Z</time>
      </trkpt>
      <trkpt lat="44.44131" lon="0.93528">
        <ele>117.42</ele>
        <time>2014-09-13T14:13:02Z</time>
      </trkpt>
      <trkpt lat="44.44131" lon="0.93528">
        <ele>117.9</ele>
        <time>2014-09-13T14:13:36Z</time>
      </trkpt>
      <trkpt lat="44.44131" lon="0.93527">
        <ele>116.94</ele>
        <time>2014-09-13T14:14:06Z</time>
      </trkpt>
      <trkpt lat="44.4413" lon="0.93527">
        <ele>115.01</ele>
        <time>2014-09-13T14:14:40Z</time>
      </trkpt>
      <trkpt lat="44.44129" lon="0.93525">
        <ele>116.46</ele>
        <time>2014-09-13T14:15:19Z</time>
      </trkpt>
      <trkpt lat="44.44129" lon="0.93527">
        <ele>116.46</ele>
        <time>2014-09-13T14:15:58Z</time>
      </trkpt>
      <trkpt lat="44.4413" lon="0.93529">
        <ele>115.01</ele>
        <time>2014-09-13T14:16:37Z</time>
      </trkpt>
      <trkpt lat="44.44129" lon="0.93526">
        <ele>115.5</ele>
        <time>2014-09-13T14:17:12Z</time>
      </trkpt>
      <trkpt lat="44.44129" lon="0.93527">
        <ele>115.5</ele>
        <time>2014-09-13T14:17:42Z</time>
      </trkpt>
      <trkpt lat="44.44128" lon="0.93528">
        <ele>115.01</ele>
        <time>2014-09-13T14:18:07Z</time>
      </trkpt>
      <trkpt lat="44.44129" lon="0.93527">
        <ele>114.53</ele>
        <time>2014-09-13T14:18:43Z</time>
      </trkpt>
      <trkpt lat="44.44128" lon="0.93527">
        <ele>114.05</ele>
        <time>2014-09-13T14:19:23Z</time>
      </trkpt>
      <trkpt lat="44.4413" lon="0.93527">
        <ele>115.98</ele>
        <time>2014-09-13T14:20:01Z</time>
      </trkpt>
      <trkpt lat="44.44129" lon="0.93527">
        <ele>116.46</ele>
        <time>2014-09-13T14:20:30Z</time>
      </trkpt>
      <trkpt lat="44.4413" lon="0.93525">
        <ele>117.42</ele>
        <time>2014-09-13T14:20:43Z</time>
      </trkpt>
      <trkpt lat="44.44132" lon="0.93523">
        <ele>116.94</ele>
        <time>2014-09-13T14:21:01Z</time>
      </trkpt>
      <trkpt lat="44.44133" lon="0.93521">
        <ele>115.98</ele>
        <time>2014-09-13T14:21:34Z</time>
      </trkpt>
      <trkpt lat="44.44134" lon="0.93519">
        <ele>115.98</ele>
        <time>2014-09-13T14:21:35Z</time>
      </trkpt>
      <trkpt lat="44.44134" lon="0.93517">
        <ele>116.46</ele>
        <time>2014-09-13T14:21:36Z</time>
      </trkpt>
      <trkpt lat="44.44133" lon="0.93514">
        <ele>116.46</ele>
        <time>2014-09-13T14:21:37Z</time>
      </trkpt>
      <trkpt lat="44.44132" lon="0.93512">
        <ele>116.46</ele>
        <time>2014-09-13T14:21:38Z</time>
      </trkpt>
      <trkpt lat="44.44135" lon="0.93476">
        <ele>116.46</ele>
        <time>2014-09-13T14:21:48Z</time>
      </trkpt>
      <trkpt lat="44.44137" lon="0.93463">
        <ele>115.98</ele>
        <time>2014-09-13T14:21:52Z</time>
      </trkpt>
      <trkpt lat="44.44135" lon="0.93461">
        <ele>115.5</ele>
        <time>2014-09-13T14:21:53Z</time>
      </trkpt>
      <trkpt lat="44.44131" lon="0.9346">
        <ele>114.53</ele>
        <time>2014-09-13T14:21:54Z</time>
      </trkpt>
      <trkpt lat="44.4409" lon="0.93451">
        <ele>109.25</ele>
        <time>2014-09-13T14:22:03Z</time>
      </trkpt>
      <trkpt lat="44.44085" lon="0.93451">
        <ele>108.77</ele>
        <time>2014-09-13T14:22:04Z</time>
      </trkpt>
      <trkpt lat="44.4408" lon="0.93453">
        <ele>107.81</ele>
        <time>2014-09-13T14:22:05Z</time>
      </trkpt>
      <trkpt lat="44.44075" lon="0.93455">
        <ele>107.32</ele>
        <time>2014-09-13T14:22:06Z</time>
      </trkpt>
      <trkpt lat="44.44071" lon="0.93457">
        <ele>106.36</ele>
        <time>2014-09-13T14:22:07Z</time>
      </trkpt>
      <trkpt lat="44.44068" lon="0.93458">
        <ele>105.88</ele>
        <time>2014-09-13T14:22:08Z</time>
      </trkpt>
      <trkpt lat="44.44066" lon="0.93455">
        <ele>105.4</ele>
        <time>2014-09-13T14:22:09Z</time>
      </trkpt>
      <trkpt lat="44.44064" lon="0.9345">
        <ele>104.44</ele>
        <time>2014-09-13T14:22:10Z</time>
      </trkpt>
      <trkpt lat="44.44058" lon="0.93436">
        <ele>103</ele>
        <time>2014-09-13T14:22:12Z</time>
      </trkpt>
      <trkpt lat="44.44035" lon="0.93375">
        <ele>94.35</ele>
        <time>2014-09-13T14:22:20Z</time>
      </trkpt>
      <trkpt lat="44.44039" lon="0.93366">
        <ele>93.39</ele>
        <time>2014-09-13T14:22:24Z</time>
      </trkpt>
      <trkpt lat="44.44065" lon="0.9337">
        <ele>94.35</ele>
        <time>2014-09-13T14:22:35Z</time>
      </trkpt>
      <trkpt lat="44.44102" lon="0.93353">
        <ele>98.19</ele>
        <time>2014-09-13T14:22:49Z</time>
      </trkpt>
      <trkpt lat="44.44139" lon="0.93327">
        <ele>101.08</ele>
        <time>2014-09-13T14:23:04Z</time>
      </trkpt>
      <trkpt lat="44.4417" lon="0.93321">
        <ele>102.52</ele>
        <time>2014-09-13T14:23:16Z</time>
      </trkpt>
      <trkpt lat="44.44168" lon="0.93314">
        <ele>102.04</ele>
        <time>2014-09-13T14:23:18Z</time>
      </trkpt>
      <trkpt lat="44.44164" lon="0.93305">
        <ele>101.08</ele>
        <time>2014-09-13T14:23:20Z</time>
      </trkpt>
      <trkpt lat="44.44158" lon="0.93269">
        <ele>97.23</ele>
        <time>2014-09-13T14:23:25Z</time>
      </trkpt>
      <trkpt lat="44.44162" lon="0.93217">
        <ele>94.35</ele>
        <time>2014-09-13T14:23:30Z</time>
      </trkpt>
      <trkpt lat="44.44157" lon="0.93174">
        <ele>90.5</ele>
        <time>2014-09-13T14:23:34Z</time>
      </trkpt>
      <trkpt lat="44.44143" lon="0.93109">
        <ele>87.14</ele>
        <time>2014-09-13T14:23:43Z</time>
      </trkpt>
      <trkpt lat="44.44127" lon="0.9305">
        <ele>90.98</ele>
        <time>2014-09-13T14:24:00Z</time>
      </trkpt>
      <trkpt lat="44.44114" lon="0.92998">
        <ele>93.39</ele>
        <time>2014-09-13T14:24:16Z</time>
      </trkpt>
      <trkpt lat="44.44101" lon="0.92948">
        <ele>94.35</ele>
        <time>2014-09-13T14:24:32Z</time>
      </trkpt>
      <trkpt lat="44.44077" lon="0.92908">
        <ele>94.83</ele>
        <time>2014-09-13T14:24:46Z</time>
      </trkpt>
      <trkpt lat="44.44045" lon="0.92856">
        <ele>98.19</ele>
        <time>2014-09-13T14:25:05Z</time>
      </trkpt>
      <trkpt lat="44.44022" lon="0.92848">
        <ele>100.11</ele>
        <time>2014-09-13T14:25:17Z</time>
      </trkpt>
      <trkpt lat="44.43999" lon="0.92852">
        <ele>102.04</ele>
        <time>2014-09-13T14:25:28Z</time>
      </trkpt>
      <trkpt lat="44.43995" lon="0.92839">
        <ele>104.44</ele>
        <time>2014-09-13T14:25:34Z</time>
      </trkpt>
      <trkpt lat="44.44007" lon="0.92793">
        <ele>108.77</ele>
        <time>2014-09-13T14:25:51Z</time>
      </trkpt>
      <trkpt lat="44.44009" lon="0.92776">
        <ele>109.25</ele>
        <time>2014-09-13T14:25:56Z</time>
      </trkpt>
      <trkpt lat="44.44008" lon="0.92773">
        <ele>109.25</ele>
        <time>2014-09-13T14:25:57Z</time>
      </trkpt>
      <trkpt lat="44.44007" lon="0.92769">
        <ele>109.25</ele>
        <time>2014-09-13T14:25:58Z</time>
      </trkpt>
      <trkpt lat="44.44009" lon="0.92726">
        <ele>112.61</ele>
        <time>2014-09-13T14:26:09Z</time>
      </trkpt>
      <trkpt lat="44.43991" lon="0.9268">
        <ele>111.17</ele>
        <time>2014-09-13T14:26:21Z</time>
      </trkpt>
      <trkpt lat="44.43957" lon="0.92601">
        <ele>108.77</ele>
        <time>2014-09-13T14:26:37Z</time>
      </trkpt>
      <trkpt lat="44.43937" lon="0.92504">
        <ele>108.77</ele>
        <time>2014-09-13T14:26:55Z</time>
      </trkpt>
      <trkpt lat="44.4392" lon="0.92446">
        <ele>111.17</ele>
        <time>2014-09-13T14:27:08Z</time>
      </trkpt>
      <trkpt lat="44.43905" lon="0.92416">
        <ele>112.61</ele>
        <time>2014-09-13T14:27:20Z</time>
      </trkpt>
      <trkpt lat="44.43906" lon="0.92416">
        <ele>112.61</ele>
        <time>2014-09-13T14:27:38Z</time>
      </trkpt>
      <trkpt lat="44.43905" lon="0.92416">
        <ele>112.61</ele>
        <time>2014-09-13T14:27:59Z</time>
      </trkpt>
      <trkpt lat="44.43905" lon="0.92415">
        <ele>113.09</ele>
        <time>2014-09-13T14:28:20Z</time>
      </trkpt>
      <trkpt lat="44.43905" lon="0.92415">
        <ele>113.09</ele>
        <time>2014-09-13T14:28:52Z</time>
      </trkpt>
      <trkpt lat="44.43905" lon="0.92415">
        <ele>112.61</ele>
        <time>2014-09-13T14:29:13Z</time>
      </trkpt>
      <trkpt lat="44.43906" lon="0.92414">
        <ele>112.61</ele>
        <time>2014-09-13T14:29:33Z</time>
      </trkpt>
      <trkpt lat="44.43906" lon="0.92412">
        <ele>112.61</ele>
        <time>2014-09-13T14:29:34Z</time>
      </trkpt>
      <trkpt lat="44.43923" lon="0.92397">
        <ele>113.57</ele>
        <time>2014-09-13T14:29:41Z</time>
      </trkpt>
      <trkpt lat="44.43924" lon="0.92393">
        <ele>114.05</ele>
        <time>2014-09-13T14:29:42Z</time>
      </trkpt>
      <trkpt lat="44.43924" lon="0.92388">
        <ele>114.05</ele>
        <time>2014-09-13T14:29:43Z</time>
      </trkpt>
      <trkpt lat="44.43924" lon="0.92384">
        <ele>114.53</ele>
        <time>2014-09-13T14:29:44Z</time>
      </trkpt>
      <trkpt lat="44.43923" lon="0.92379">
        <ele>114.53</ele>
        <time>2014-09-13T14:29:45Z</time>
      </trkpt>
      <trkpt lat="44.43904" lon="0.92312">
        <ele>119.34</ele>
        <time>2014-09-13T14:30:02Z</time>
      </trkpt>
      <trkpt lat="44.43892" lon="0.92263">
        <ele>121.26</ele>
        <time>2014-09-13T14:30:15Z</time>
      </trkpt>
      <trkpt lat="44.43869" lon="0.92188">
        <ele>121.74</ele>
        <time>2014-09-13T14:30:32Z</time>
      </trkpt>
      <trkpt lat="44.43833" lon="0.92123">
        <ele>121.74</ele>
        <time>2014-09-13T14:30:47Z</time>
      </trkpt>
      <trkpt lat="44.43827" lon="0.92115">
        <ele>121.74</ele>
        <time>2014-09-13T14:30:49Z</time>
      </trkpt>
      <trkpt lat="44.43804" lon="0.92089">
        <ele>122.22</ele>
        <time>2014-09-13T14:30:56Z</time>
      </trkpt>
      <trkpt lat="44.438" lon="0.92086">
        <ele>122.22</ele>
        <time>2014-09-13T14:30:57Z</time>
      </trkpt>
      <trkpt lat="44.43732" lon="0.92034">
        <ele>118.86</ele>
        <time>2014-09-13T14:31:12Z</time>
      </trkpt>
      <trkpt lat="44.43667" lon="0.91963">
        <ele>113.57</ele>
        <time>2014-09-13T14:31:23Z</time>
      </trkpt>
      <trkpt lat="44.43654" lon="0.91947">
        <ele>112.61</ele>
        <time>2014-09-13T14:31:25Z</time>
      </trkpt>
      <trkpt lat="44.43648" lon="0.91937">
        <ele>112.13</ele>
        <time>2014-09-13T14:31:26Z</time>
      </trkpt>
      <trkpt lat="44.43597" lon="0.91853">
        <ele>114.53</ele>
        <time>2014-09-13T14:31:37Z</time>
      </trkpt>
      <trkpt lat="44.43544" lon="0.91755">
        <ele>110.21</ele>
        <time>2014-09-13T14:31:48Z</time>
      </trkpt>
      <trkpt lat="44.43489" lon="0.9161">
        <ele>104.44</ele>
        <time>2014-09-13T14:32:00Z</time>
      </trkpt>
      <trkpt lat="44.43473" lon="0.91553">
        <ele>102.52</ele>
        <time>2014-09-13T14:32:08Z</time>
      </trkpt>
      <trkpt lat="44.43472" lon="0.91552">
        <ele>102.52</ele>
        <time>2014-09-13T14:32:18Z</time>
      </trkpt>
      <trkpt lat="44.43465" lon="0.91541">
        <ele>102.52</ele>
        <time>2014-09-13T14:32:35Z</time>
      </trkpt>
      <trkpt lat="44.43463" lon="0.91535">
        <ele>102.04</ele>
        <time>2014-09-13T14:32:36Z</time>
      </trkpt>
      <trkpt lat="44.43429" lon="0.91452">
        <ele>98.67</ele>
        <time>2014-09-13T14:32:47Z</time>
      </trkpt>
      <trkpt lat="44.43389" lon="0.91397">
        <ele>96.27</ele>
        <time>2014-09-13T14:32:55Z</time>
      </trkpt>
      <trkpt lat="44.43376" lon="0.91365">
        <ele>96.27</ele>
        <time>2014-09-13T14:32:59Z</time>
      </trkpt>
      <trkpt lat="44.4335" lon="0.91325">
        <ele>95.31</ele>
        <time>2014-09-13T14:33:05Z</time>
      </trkpt>
      <trkpt lat="44.43306" lon="0.91265">
        <ele>93.87</ele>
        <time>2014-09-13T14:33:14Z</time>
      </trkpt>
      <trkpt lat="44.43287" lon="0.91251">
        <ele>94.35</ele>
        <time>2014-09-13T14:33:18Z</time>
      </trkpt>
      <trkpt lat="44.43268" lon="0.91225">
        <ele>95.79</ele>
        <time>2014-09-13T14:33:24Z</time>
      </trkpt>
      <trkpt lat="44.43247" lon="0.91214">
        <ele>96.75</ele>
        <time>2014-09-13T14:33:29Z</time>
      </trkpt>
      <trkpt lat="44.43236" lon="0.91205">
        <ele>97.71</ele>
        <time>2014-09-13T14:33:32Z</time>
      </trkpt>
      <trkpt lat="44.43228" lon="0.912">
        <ele>98.67</ele>
        <time>2014-09-13T14:33:34Z</time>
      </trkpt>
      <trkpt lat="44.43196" lon="0.91171">
        <ele>99.63</ele>
        <time>2014-09-13T14:33:43Z</time>
      </trkpt>
      <trkpt lat="44.43176" lon="0.91171">
        <ele>98.67</ele>
        <time>2014-09-13T14:33:52Z</time>
      </trkpt>
      <trkpt lat="44.43176" lon="0.9117">
        <ele>99.15</ele>
        <time>2014-09-13T14:34:01Z</time>
      </trkpt>
      <trkpt lat="44.43171" lon="0.91182">
        <ele>98.67</ele>
        <time>2014-09-13T14:34:06Z</time>
      </trkpt>
      <trkpt lat="44.43159" lon="0.91204">
        <ele>98.19</ele>
        <time>2014-09-13T14:34:11Z</time>
      </trkpt>
      <trkpt lat="44.43154" lon="0.91221">
        <ele>97.23</ele>
        <time>2014-09-13T14:34:14Z</time>
      </trkpt>
      <trkpt lat="44.43144" lon="0.91244">
        <ele>96.27</ele>
        <time>2014-09-13T14:34:18Z</time>
      </trkpt>
      <trkpt lat="44.4314" lon="0.91255">
        <ele>96.27</ele>
        <time>2014-09-13T14:34:20Z</time>
      </trkpt>
      <trkpt lat="44.43115" lon="0.9127">
        <ele>96.75</ele>
        <time>2014-09-13T14:34:28Z</time>
      </trkpt>
      <trkpt lat="44.43076" lon="0.91238">
        <ele>99.15</ele>
        <time>2014-09-13T14:34:41Z</time>
      </trkpt>
      <trkpt lat="44.43069" lon="0.91231">
        <ele>99.63</ele>
        <time>2014-09-13T14:34:44Z</time>
      </trkpt>
      <trkpt lat="44.43066" lon="0.91212">
        <ele>100.6</ele>
        <time>2014-09-13T14:34:50Z</time>
      </trkpt>
      <trkpt lat="44.4305" lon="0.91177">
        <ele>104.44</ele>
        <time>2014-09-13T14:35:00Z</time>
      </trkpt>
      <trkpt lat="44.4305" lon="0.91141">
        <ele>106.84</ele>
        <time>2014-09-13T14:35:10Z</time>
      </trkpt>
      <trkpt lat="44.43052" lon="0.91133">
        <ele>107.32</ele>
        <time>2014-09-13T14:35:12Z</time>
      </trkpt>
      <trkpt lat="44.43053" lon="0.91111">
        <ele>108.29</ele>
        <time>2014-09-13T14:35:17Z</time>
      </trkpt>
      <trkpt lat="44.43062" lon="0.91067">
        <ele>109.25</ele>
        <time>2014-09-13T14:35:26Z</time>
      </trkpt>
      <trkpt lat="44.43055" lon="0.91044">
        <ele>108.77</ele>
        <time>2014-09-13T14:35:32Z</time>
      </trkpt>
      <trkpt lat="44.43023" lon="0.91017">
        <ele>106.36</ele>
        <time>2014-09-13T14:35:45Z</time>
      </trkpt>
      <trkpt lat="44.42992" lon="0.90998">
        <ele>103.96</ele>
        <time>2014-09-13T14:35:54Z</time>
      </trkpt>
      <trkpt lat="44.42958" lon="0.90991">
        <ele>98.67</ele>
        <time>2014-09-13T14:36:01Z</time>
      </trkpt>
      <trkpt lat="44.42936" lon="0.90989">
        <ele>92.9</ele>
        <time>2014-09-13T14:36:06Z</time>
      </trkpt>
      <trkpt lat="44.42904" lon="0.91006">
        <ele>85.69</ele>
        <time>2014-09-13T14:36:15Z</time>
      </trkpt>
      <trkpt lat="44.429" lon="0.91006">
        <ele>85.21</ele>
        <time>2014-09-13T14:36:16Z</time>
      </trkpt>
      <trkpt lat="44.42868" lon="0.9099">
        <ele>83.29</ele>
        <time>2014-09-13T14:36:26Z</time>
      </trkpt>
      <trkpt lat="44.42866" lon="0.90987">
        <ele>83.29</ele>
        <time>2014-09-13T14:36:27Z</time>
      </trkpt>
      <trkpt lat="44.42839" lon="0.90991">
        <ele>82.33</ele>
        <time>2014-09-13T14:36:35Z</time>
      </trkpt>
      <trkpt lat="44.42815" lon="0.90979">
        <ele>80.41</ele>
        <time>2014-09-13T14:36:46Z</time>
      </trkpt>
      <trkpt lat="44.4278" lon="0.90967">
        <ele>79.93</ele>
        <time>2014-09-13T14:36:57Z</time>
      </trkpt>
      <trkpt lat="44.42729" lon="0.90957">
        <ele>78</ele>
        <time>2014-09-13T14:37:09Z</time>
      </trkpt>
      <trkpt lat="44.42711" lon="0.9096">
        <ele>78.48</ele>
        <time>2014-09-13T14:37:16Z</time>
      </trkpt>
      <trkpt lat="44.42708" lon="0.9096">
        <ele>78.48</ele>
        <time>2014-09-13T14:37:27Z</time>
      </trkpt>
      <trkpt lat="44.42707" lon="0.90961">
        <ele>78.97</ele>
        <time>2014-09-13T14:37:38Z</time>
      </trkpt>
      <trkpt lat="44.42703" lon="0.9096">
        <ele>79.45</ele>
        <time>2014-09-13T14:37:51Z</time>
      </trkpt>
      <trkpt lat="44.42697" lon="0.90956">
        <ele>78.97</ele>
        <time>2014-09-13T14:37:54Z</time>
      </trkpt>
      <trkpt lat="44.4269" lon="0.90952">
        <ele>78</ele>
        <time>2014-09-13T14:37:59Z</time>
      </trkpt>
      <trkpt lat="44.42667" lon="0.90981">
        <ele>75.12</ele>
        <time>2014-09-13T14:38:12Z</time>
      </trkpt>
      <trkpt lat="44.42659" lon="0.91003">
        <ele>73.2</ele>
        <time>2014-09-13T14:38:19Z</time>
      </trkpt>
      <trkpt lat="44.42648" lon="0.91026">
        <ele>72.24</ele>
        <time>2014-09-13T14:38:27Z</time>
      </trkpt>
      <trkpt lat="44.42626" lon="0.91047">
        <ele>73.68</ele>
        <time>2014-09-13T14:38:40Z</time>
      </trkpt>
      <trkpt lat="44.42621" lon="0.91051">
        <ele>76.08</ele>
        <time>2014-09-13T14:38:47Z</time>
      </trkpt>
      <trkpt lat="44.42616" lon="0.91052">
        <ele>77.52</ele>
        <time>2014-09-13T14:38:51Z</time>
      </trkpt>
      <trkpt lat="44.42615" lon="0.91048">
        <ele>79.45</ele>
        <time>2014-09-13T14:39:02Z</time>
      </trkpt>
      <trkpt lat="44.42615" lon="0.91047">
        <ele>79.45</ele>
        <time>2014-09-13T14:39:22Z</time>
      </trkpt>
      <trkpt lat="44.42613" lon="0.91047">
        <ele>80.41</ele>
        <time>2014-09-13T14:39:35Z</time>
      </trkpt>
      <trkpt lat="44.42613" lon="0.91026">
        <ele>79.45</ele>
        <time>2014-09-13T14:39:49Z</time>
      </trkpt>
      <trkpt lat="44.426" lon="0.90967">
        <ele>77.52</ele>
        <time>2014-09-13T14:40:02Z</time>
      </trkpt>
      <trkpt lat="44.42582" lon="0.90909">
        <ele>80.41</ele>
        <time>2014-09-13T14:40:17Z</time>
      </trkpt>
      <trkpt lat="44.42563" lon="0.90847">
        <ele>82.33</ele>
        <time>2014-09-13T14:40:33Z</time>
      </trkpt>
      <trkpt lat="44.42541" lon="0.90784">
        <ele>86.18</ele>
        <time>2014-09-13T14:40:49Z</time>
      </trkpt>
      <trkpt lat="44.42522" lon="0.90722">
        <ele>88.58</ele>
        <time>2014-09-13T14:41:04Z</time>
      </trkpt>
      <trkpt lat="44.42502" lon="0.90661">
        <ele>91.46</ele>
        <time>2014-09-13T14:41:19Z</time>
      </trkpt>
      <trkpt lat="44.42499" lon="0.90643">
        <ele>93.39</ele>
        <time>2014-09-13T14:41:25Z</time>
      </trkpt>
      <trkpt lat="44.42493" lon="0.90642">
        <ele>93.39</ele>
        <time>2014-09-13T14:41:29Z</time>
      </trkpt>
      <trkpt lat="44.42488" lon="0.90641">
        <ele>94.35</ele>
        <time>2014-09-13T14:41:42Z</time>
      </trkpt>
      <trkpt lat="44.42489" lon="0.90642">
        <ele>95.31</ele>
        <time>2014-09-13T14:42:01Z</time>
      </trkpt>
      <trkpt lat="44.42489" lon="0.90642">
        <ele>95.79</ele>
        <time>2014-09-13T14:42:19Z</time>
      </trkpt>
      <trkpt lat="44.42489" lon="0.90642">
        <ele>95.79</ele>
        <time>2014-09-13T14:42:39Z</time>
      </trkpt>
      <trkpt lat="44.4249" lon="0.90641">
        <ele>96.75</ele>
        <time>2014-09-13T14:42:55Z</time>
      </trkpt>
      <trkpt lat="44.4249" lon="0.90642">
        <ele>97.23</ele>
        <time>2014-09-13T14:43:24Z</time>
      </trkpt>
      <trkpt lat="44.42489" lon="0.90642">
        <ele>96.27</ele>
        <time>2014-09-13T14:43:50Z</time>
      </trkpt>
      <trkpt lat="44.42489" lon="0.90642">
        <ele>96.75</ele>
        <time>2014-09-13T14:44:09Z</time>
      </trkpt>
      <trkpt lat="44.42483" lon="0.90645">
        <ele>96.75</ele>
        <time>2014-09-13T14:44:13Z</time>
      </trkpt>
      <trkpt lat="44.4248" lon="0.90645">
        <ele>96.75</ele>
        <time>2014-09-13T14:44:14Z</time>
      </trkpt>
      <trkpt lat="44.42439" lon="0.90662">
        <ele>98.19</ele>
        <time>2014-09-13T14:44:27Z</time>
      </trkpt>
      <trkpt lat="44.42381" lon="0.90686">
        <ele>97.71</ele>
        <time>2014-09-13T14:44:43Z</time>
      </trkpt>
      <trkpt lat="44.42377" lon="0.9069">
        <ele>97.23</ele>
        <time>2014-09-13T14:44:44Z</time>
      </trkpt>
      <trkpt lat="44.42374" lon="0.90696">
        <ele>96.75</ele>
        <time>2014-09-13T14:44:45Z</time>
      </trkpt>
      <trkpt lat="44.42372" lon="0.90703">
        <ele>96.27</ele>
        <time>2014-09-13T14:44:46Z</time>
      </trkpt>
      <trkpt lat="44.42371" lon="0.90711">
        <ele>95.79</ele>
        <time>2014-09-13T14:44:47Z</time>
      </trkpt>
      <trkpt lat="44.42371" lon="0.90719">
        <ele>95.31</ele>
        <time>2014-09-13T14:44:48Z</time>
      </trkpt>
      <trkpt lat="44.42371" lon="0.90727">
        <ele>94.83</ele>
        <time>2014-09-13T14:44:49Z</time>
      </trkpt>
      <trkpt lat="44.4238" lon="0.90808">
        <ele>90.98</ele>
        <time>2014-09-13T14:44:57Z</time>
      </trkpt>
      <trkpt lat="44.42381" lon="0.9083">
        <ele>90.02</ele>
        <time>2014-09-13T14:44:59Z</time>
      </trkpt>
      <trkpt lat="44.42373" lon="0.90953">
        <ele>82.81</ele>
        <time>2014-09-13T14:45:10Z</time>
      </trkpt>
      <trkpt lat="44.42371" lon="0.90962">
        <ele>82.33</ele>
        <time>2014-09-13T14:45:11Z</time>
      </trkpt>
      <trkpt lat="44.42367" lon="0.90975">
        <ele>81.37</ele>
        <time>2014-09-13T14:45:13Z</time>
      </trkpt>
      <trkpt lat="44.42364" lon="0.90988">
        <ele>81.37</ele>
        <time>2014-09-13T14:45:15Z</time>
      </trkpt>
      <trkpt lat="44.42362" lon="0.90994">
        <ele>80.89</ele>
        <time>2014-09-13T14:45:16Z</time>
      </trkpt>
      <trkpt lat="44.42358" lon="0.91019">
        <ele>81.37</ele>
        <time>2014-09-13T14:45:20Z</time>
      </trkpt>
      <trkpt lat="44.42348" lon="0.91054">
        <ele>84.25</ele>
        <time>2014-09-13T14:45:27Z</time>
      </trkpt>
      <trkpt lat="44.42339" lon="0.91075">
        <ele>83.77</ele>
        <time>2014-09-13T14:45:31Z</time>
      </trkpt>
      <trkpt lat="44.42325" lon="0.91084">
        <ele>82.81</ele>
        <time>2014-09-13T14:45:34Z</time>
      </trkpt>
      <trkpt lat="44.42295" lon="0.91122">
        <ele>83.29</ele>
        <time>2014-09-13T14:45:43Z</time>
      </trkpt>
      <trkpt lat="44.42262" lon="0.91176">
        <ele>85.21</ele>
        <time>2014-09-13T14:45:57Z</time>
      </trkpt>
      <trkpt lat="44.42225" lon="0.91219">
        <ele>88.58</ele>
        <time>2014-09-13T14:46:10Z</time>
      </trkpt>
      <trkpt lat="44.42177" lon="0.91271">
        <ele>89.54</ele>
        <time>2014-09-13T14:46:23Z</time>
      </trkpt>
      <trkpt lat="44.42145" lon="0.91315">
        <ele>89.54</ele>
        <time>2014-09-13T14:46:32Z</time>
      </trkpt>
      <trkpt lat="44.42135" lon="0.91329">
        <ele>90.5</ele>
        <time>2014-09-13T14:46:35Z</time>
      </trkpt>
      <trkpt lat="44.42127" lon="0.91345">
        <ele>90.98</ele>
        <time>2014-09-13T14:46:38Z</time>
      </trkpt>
      <trkpt lat="44.4209" lon="0.91449">
        <ele>89.06</ele>
        <time>2014-09-13T14:46:56Z</time>
      </trkpt>
      <trkpt lat="44.42077" lon="0.91493">
        <ele>88.1</ele>
        <time>2014-09-13T14:47:03Z</time>
      </trkpt>
      <trkpt lat="44.4206" lon="0.91523">
        <ele>88.58</ele>
        <time>2014-09-13T14:47:10Z</time>
      </trkpt>
      <trkpt lat="44.42015" lon="0.9157">
        <ele>91.46</ele>
        <time>2014-09-13T14:47:26Z</time>
      </trkpt>
      <trkpt lat="44.4198" lon="0.91608">
        <ele>89.54</ele>
        <time>2014-09-13T14:47:35Z</time>
      </trkpt>
      <trkpt lat="44.41969" lon="0.91627">
        <ele>89.06</ele>
        <time>2014-09-13T14:47:39Z</time>
      </trkpt>
      <trkpt lat="44.41934" lon="0.91722">
        <ele>87.62</ele>
        <time>2014-09-13T14:47:56Z</time>
      </trkpt>
      <trkpt lat="44.41928" lon="0.91755">
        <ele>87.14</ele>
        <time>2014-09-13T14:48:07Z</time>
      </trkpt>
      <trkpt lat="44.41942" lon="0.91786">
        <ele>85.69</ele>
        <time>2014-09-13T14:48:17Z</time>
      </trkpt>
      <trkpt lat="44.41984" lon="0.9181">
        <ele>85.21</ele>
        <time>2014-09-13T14:48:31Z</time>
      </trkpt>
      <trkpt lat="44.42027" lon="0.91834">
        <ele>87.62</ele>
        <time>2014-09-13T14:48:46Z</time>
      </trkpt>
      <trkpt lat="44.42058" lon="0.91854">
        <ele>92.9</ele>
        <time>2014-09-13T14:49:01Z</time>
      </trkpt>
      <trkpt lat="44.42084" lon="0.91869">
        <ele>96.75</ele>
        <time>2014-09-13T14:49:16Z</time>
      </trkpt>
      <trkpt lat="44.4211" lon="0.91884">
        <ele>100.11</ele>
        <time>2014-09-13T14:49:31Z</time>
      </trkpt>
      <trkpt lat="44.42111" lon="0.91885">
        <ele>100.11</ele>
        <time>2014-09-13T14:49:32Z</time>
      </trkpt>
      <trkpt lat="44.42113" lon="0.91887">
        <ele>100.11</ele>
        <time>2014-09-13T14:49:33Z</time>
      </trkpt>
      <trkpt lat="44.42115" lon="0.91888">
        <ele>100.11</ele>
        <time>2014-09-13T14:49:34Z</time>
      </trkpt>
      <trkpt lat="44.42117" lon="0.91888">
        <ele>100.6</ele>
        <time>2014-09-13T14:49:35Z</time>
      </trkpt>
      <trkpt lat="44.42119" lon="0.91888">
        <ele>100.6</ele>
        <time>2014-09-13T14:49:36Z</time>
      </trkpt>
      <trkpt lat="44.42121" lon="0.91889">
        <ele>100.6</ele>
        <time>2014-09-13T14:49:37Z</time>
      </trkpt>
      <trkpt lat="44.42123" lon="0.9189">
        <ele>101.08</ele>
        <time>2014-09-13T14:49:38Z</time>
      </trkpt>
      <trkpt lat="44.42125" lon="0.91891">
        <ele>101.08</ele>
        <time>2014-09-13T14:49:39Z</time>
      </trkpt>
      <trkpt lat="44.42127" lon="0.91891">
        <ele>101.56</ele>
        <time>2014-09-13T14:49:40Z</time>
      </trkpt>
      <trkpt lat="44.42153" lon="0.91898">
        <ele>105.4</ele>
        <time>2014-09-13T14:49:52Z</time>
      </trkpt>
      <trkpt lat="44.42186" lon="0.91909">
        <ele>105.88</ele>
        <time>2014-09-13T14:50:06Z</time>
      </trkpt>
      <trkpt lat="44.42233" lon="0.91938">
        <ele>105.4</ele>
        <time>2014-09-13T14:50:23Z</time>
      </trkpt>
      <trkpt lat="44.42293" lon="0.91986">
        <ele>104.44</ele>
        <time>2014-09-13T14:50:45Z</time>
      </trkpt>
      <trkpt lat="44.42341" lon="0.92026">
        <ele>106.36</ele>
        <time>2014-09-13T14:51:04Z</time>
      </trkpt>
      <trkpt lat="44.42343" lon="0.92066">
        <ele>107.81</ele>
        <time>2014-09-13T14:51:15Z</time>
      </trkpt>
      <trkpt lat="44.42327" lon="0.92127">
        <ele>109.25</ele>
        <time>2014-09-13T14:51:30Z</time>
      </trkpt>
      <trkpt lat="44.42348" lon="0.92193">
        <ele>109.73</ele>
        <time>2014-09-13T14:51:44Z</time>
      </trkpt>
      <trkpt lat="44.42369" lon="0.92265">
        <ele>109.25</ele>
        <time>2014-09-13T14:51:59Z</time>
      </trkpt>
      <trkpt lat="44.42419" lon="0.9231">
        <ele>105.88</ele>
        <time>2014-09-13T14:52:11Z</time>
      </trkpt>
      <trkpt lat="44.42435" lon="0.92319">
        <ele>105.88</ele>
        <time>2014-09-13T14:52:14Z</time>
      </trkpt>
      <trkpt lat="44.42494" lon="0.92339">
        <ele>107.32</ele>
        <time>2014-09-13T14:52:26Z</time>
      </trkpt>
      <trkpt lat="44.42562" lon="0.92364">
        <ele>111.17</ele>
        <time>2014-09-13T14:52:45Z</time>
      </trkpt>
      <trkpt lat="44.42584" lon="0.92372">
        <ele>112.61</ele>
        <time>2014-09-13T14:52:54Z</time>
      </trkpt>
      <trkpt lat="44.42585" lon="0.92373">
        <ele>112.61</ele>
        <time>2014-09-13T14:52:55Z</time>
      </trkpt>
      <trkpt lat="44.42586" lon="0.92373">
        <ele>112.61</ele>
        <time>2014-09-13T14:52:56Z</time>
      </trkpt>
      <trkpt lat="44.42587" lon="0.92374">
        <ele>112.61</ele>
        <time>2014-09-13T14:52:57Z</time>
      </trkpt>
      <trkpt lat="44.42589" lon="0.92375">
        <ele>113.09</ele>
        <time>2014-09-13T14:52:58Z</time>
      </trkpt>
      <trkpt lat="44.42593" lon="0.92376">
        <ele>113.09</ele>
        <time>2014-09-13T14:53:11Z</time>
      </trkpt>
      <trkpt lat="44.42593" lon="0.92376">
        <ele>112.13</ele>
        <time>2014-09-13T14:53:25Z</time>
      </trkpt>
      <trkpt lat="44.42594" lon="0.92377">
        <ele>112.61</ele>
        <time>2014-09-13T14:53:26Z</time>
      </trkpt>
      <trkpt lat="44.42603" lon="0.92385">
        <ele>112.61</ele>
        <time>2014-09-13T14:53:31Z</time>
      </trkpt>
      <trkpt lat="44.42605" lon="0.92386">
        <ele>112.61</ele>
        <time>2014-09-13T14:53:32Z</time>
      </trkpt>
      <trkpt lat="44.42607" lon="0.92388">
        <ele>112.61</ele>
        <time>2014-09-13T14:53:33Z</time>
      </trkpt>
      <trkpt lat="44.4261" lon="0.92389">
        <ele>112.61</ele>
        <time>2014-09-13T14:53:34Z</time>
      </trkpt>
      <trkpt lat="44.42612" lon="0.92392">
        <ele>112.13</ele>
        <time>2014-09-13T14:53:35Z</time>
      </trkpt>
      <trkpt lat="44.42615" lon="0.92394">
        <ele>112.13</ele>
        <time>2014-09-13T14:53:36Z</time>
      </trkpt>
      <trkpt lat="44.42618" lon="0.92397">
        <ele>112.13</ele>
        <time>2014-09-13T14:53:37Z</time>
      </trkpt>
      <trkpt lat="44.42621" lon="0.92399">
        <ele>111.65</ele>
        <time>2014-09-13T14:53:38Z</time>
      </trkpt>
      <trkpt lat="44.42628" lon="0.92405">
        <ele>111.17</ele>
        <time>2014-09-13T14:53:40Z</time>
      </trkpt>
      <trkpt lat="44.4264" lon="0.92416">
        <ele>110.69</ele>
        <time>2014-09-13T14:53:43Z</time>
      </trkpt>
      <trkpt lat="44.42644" lon="0.92419">
        <ele>110.69</ele>
        <time>2014-09-13T14:53:44Z</time>
      </trkpt>
      <trkpt lat="44.42647" lon="0.92423">
        <ele>110.21</ele>
        <time>2014-09-13T14:53:45Z</time>
      </trkpt>
      <trkpt lat="44.42651" lon="0.92427">
        <ele>110.21</ele>
        <time>2014-09-13T14:53:46Z</time>
      </trkpt>
      <trkpt lat="44.42654" lon="0.9243">
        <ele>109.73</ele>
        <time>2014-09-13T14:53:47Z</time>
      </trkpt>
      <trkpt lat="44.42657" lon="0.92433">
        <ele>109.73</ele>
        <time>2014-09-13T14:53:48Z</time>
      </trkpt>
      <trkpt lat="44.42673" lon="0.92453">
        <ele>108.77</ele>
        <time>2014-09-13T14:53:54Z</time>
      </trkpt>
      <trkpt lat="44.42673" lon="0.92458">
        <ele>108.77</ele>
        <time>2014-09-13T14:53:55Z</time>
      </trkpt>
      <trkpt lat="44.42672" lon="0.92462">
        <ele>108.77</ele>
        <time>2014-09-13T14:53:56Z</time>
      </trkpt>
      <trkpt lat="44.42652" lon="0.92527">
        <ele>110.21</ele>
        <time>2014-09-13T14:54:10Z</time>
      </trkpt>
      <trkpt lat="44.4263" lon="0.92595">
        <ele>112.13</ele>
        <time>2014-09-13T14:54:24Z</time>
      </trkpt>
      <trkpt lat="44.42623" lon="0.92613">
        <ele>113.57</ele>
        <time>2014-09-13T14:54:29Z</time>
      </trkpt>
      <trkpt lat="44.4262" lon="0.92615">
        <ele>113.57</ele>
        <time>2014-09-13T14:54:30Z</time>
      </trkpt>
      <trkpt lat="44.42617" lon="0.92617">
        <ele>113.57</ele>
        <time>2014-09-13T14:54:31Z</time>
      </trkpt>
      <trkpt lat="44.42614" lon="0.92617">
        <ele>113.57</ele>
        <time>2014-09-13T14:54:32Z</time>
      </trkpt>
      <trkpt lat="44.42611" lon="0.92617">
        <ele>113.57</ele>
        <time>2014-09-13T14:54:33Z</time>
      </trkpt>
      <trkpt lat="44.42608" lon="0.92617">
        <ele>113.57</ele>
        <time>2014-09-13T14:54:34Z</time>
      </trkpt>
      <trkpt lat="44.4255" lon="0.92618">
        <ele>115.01</ele>
        <time>2014-09-13T14:54:50Z</time>
      </trkpt>
      <trkpt lat="44.42533" lon="0.92617">
        <ele>115.5</ele>
        <time>2014-09-13T14:54:55Z</time>
      </trkpt>
      <trkpt lat="44.4253" lon="0.92619">
        <ele>115.01</ele>
        <time>2014-09-13T14:54:56Z</time>
      </trkpt>
      <trkpt lat="44.42528" lon="0.92622">
        <ele>115.5</ele>
        <time>2014-09-13T14:54:57Z</time>
      </trkpt>
      <trkpt lat="44.42524" lon="0.92631">
        <ele>115.5</ele>
        <time>2014-09-13T14:54:59Z</time>
      </trkpt>
      <trkpt lat="44.42491" lon="0.92711">
        <ele>117.42</ele>
        <time>2014-09-13T14:55:16Z</time>
      </trkpt>
      <trkpt lat="44.4246" lon="0.92782">
        <ele>118.38</ele>
        <time>2014-09-13T14:55:31Z</time>
      </trkpt>
      <trkpt lat="44.42429" lon="0.92838">
        <ele>118.86</ele>
        <time>2014-09-13T14:55:46Z</time>
      </trkpt>
      <trkpt lat="44.42401" lon="0.92873">
        <ele>123.19</ele>
        <time>2014-09-13T14:55:58Z</time>
      </trkpt>
      <trkpt lat="44.42375" lon="0.92904">
        <ele>125.11</ele>
        <time>2014-09-13T14:56:08Z</time>
      </trkpt>
      <trkpt lat="44.42341" lon="0.92935">
        <ele>125.59</ele>
        <time>2014-09-13T14:56:18Z</time>
      </trkpt>
      <trkpt lat="44.42302" lon="0.92989">
        <ele>129.43</ele>
        <time>2014-09-13T14:56:31Z</time>
      </trkpt>
      <trkpt lat="44.42289" lon="0.93013">
        <ele>130.88</ele>
        <time>2014-09-13T14:56:37Z</time>
      </trkpt>
      <trkpt lat="44.42284" lon="0.93025">
        <ele>131.36</ele>
        <time>2014-09-13T14:56:41Z</time>
      </trkpt>
      <trkpt lat="44.42275" lon="0.93048">
        <ele>133.76</ele>
        <time>2014-09-13T14:56:48Z</time>
      </trkpt>
      <trkpt lat="44.42271" lon="0.93054">
        <ele>134.24</ele>
        <time>2014-09-13T14:56:51Z</time>
      </trkpt>
      <trkpt lat="44.42246" lon="0.9308">
        <ele>134.72</ele>
        <time>2014-09-13T14:57:01Z</time>
      </trkpt>
      <trkpt lat="44.42228" lon="0.93096">
        <ele>133.28</ele>
        <time>2014-09-13T14:57:07Z</time>
      </trkpt>
      <trkpt lat="44.4218" lon="0.93133">
        <ele>130.88</ele>
        <time>2014-09-13T14:57:17Z</time>
      </trkpt>
      <trkpt lat="44.42113" lon="0.93212">
        <ele>129.43</ele>
        <time>2014-09-13T14:57:29Z</time>
      </trkpt>
      <trkpt lat="44.42054" lon="0.93338">
        <ele>122.22</ele>
        <time>2014-09-13T14:57:43Z</time>
      </trkpt>
      <trkpt lat="44.42033" lon="0.93379">
        <ele>119.82</ele>
        <time>2014-09-13T14:57:49Z</time>
      </trkpt>
      <trkpt lat="44.41988" lon="0.9347">
        <ele>113.09</ele>
        <time>2014-09-13T14:58:00Z</time>
      </trkpt>
      <trkpt lat="44.41984" lon="0.93477">
        <ele>113.09</ele>
        <time>2014-09-13T14:58:01Z</time>
      </trkpt>
      <trkpt lat="44.41951" lon="0.93538">
        <ele>114.05</ele>
        <time>2014-09-13T14:58:12Z</time>
      </trkpt>
      <trkpt lat="44.41923" lon="0.93613">
        <ele>113.57</ele>
        <time>2014-09-13T14:58:27Z</time>
      </trkpt>
      <trkpt lat="44.41918" lon="0.93678">
        <ele>118.38</ele>
        <time>2014-09-13T14:58:39Z</time>
      </trkpt>
      <trkpt lat="44.41911" lon="0.93732">
        <ele>122.22</ele>
        <time>2014-09-13T14:58:50Z</time>
      </trkpt>
      <trkpt lat="44.41898" lon="0.93786">
        <ele>125.59</ele>
        <time>2014-09-13T14:59:03Z</time>
      </trkpt>
      <trkpt lat="44.41885" lon="0.93846">
        <ele>126.07</ele>
        <time>2014-09-13T14:59:16Z</time>
      </trkpt>
      <trkpt lat="44.41868" lon="0.93896">
        <ele>127.03</ele>
        <time>2014-09-13T14:59:28Z</time>
      </trkpt>
      <trkpt lat="44.41857" lon="0.93942">
        <ele>130.88</ele>
        <time>2014-09-13T14:59:38Z</time>
      </trkpt>
      <trkpt lat="44.41847" lon="0.93964">
        <ele>131.84</ele>
        <time>2014-09-13T14:59:44Z</time>
      </trkpt>
      <trkpt lat="44.4183" lon="0.93991">
        <ele>131.36</ele>
        <time>2014-09-13T14:59:52Z</time>
      </trkpt>
      <trkpt lat="44.41795" lon="0.94053">
        <ele>129.43</ele>
        <time>2014-09-13T15:00:04Z</time>
      </trkpt>
      <trkpt lat="44.4175" lon="0.94146">
        <ele>125.59</ele>
        <time>2014-09-13T15:00:15Z</time>
      </trkpt>
      <trkpt lat="44.41735" lon="0.94179">
        <ele>123.19</ele>
        <time>2014-09-13T15:00:19Z</time>
      </trkpt>
      <trkpt lat="44.41699" lon="0.94253">
        <ele>120.78</ele>
        <time>2014-09-13T15:00:32Z</time>
      </trkpt>
      <trkpt lat="44.41673" lon="0.943">
        <ele>124.15</ele>
        <time>2014-09-13T15:00:44Z</time>
      </trkpt>
      <trkpt lat="44.41643" lon="0.94353">
        <ele>127.99</ele>
        <time>2014-09-13T15:00:57Z</time>
      </trkpt>
      <trkpt lat="44.41616" lon="0.94417">
        <ele>130.4</ele>
        <time>2014-09-13T15:01:12Z</time>
      </trkpt>
      <trkpt lat="44.41595" lon="0.94474">
        <ele>133.28</ele>
        <time>2014-09-13T15:01:25Z</time>
      </trkpt>
      <trkpt lat="44.41576" lon="0.94536">
        <ele>138.57</ele>
        <time>2014-09-13T15:01:38Z</time>
      </trkpt>
      <trkpt lat="44.41562" lon="0.94587">
        <ele>139.53</ele>
        <time>2014-09-13T15:01:48Z</time>
      </trkpt>
      <trkpt lat="44.41551" lon="0.94637">
        <ele>140.01</ele>
        <time>2014-09-13T15:01:57Z</time>
      </trkpt>
      <trkpt lat="44.41547" lon="0.94648">
        <ele>140.01</ele>
        <time>2014-09-13T15:01:59Z</time>
      </trkpt>
      <trkpt lat="44.41521" lon="0.94713">
        <ele>140.49</ele>
        <time>2014-09-13T15:02:11Z</time>
      </trkpt>
      <trkpt lat="44.41494" lon="0.9478">
        <ele>141.93</ele>
        <time>2014-09-13T15:02:24Z</time>
      </trkpt>
      <trkpt lat="44.41486" lon="0.94798">
        <ele>142.41</ele>
        <time>2014-09-13T15:02:33Z</time>
      </trkpt>
      <trkpt lat="44.41486" lon="0.948">
        <ele>142.41</ele>
        <time>2014-09-13T15:02:47Z</time>
      </trkpt>
      <trkpt lat="44.41486" lon="0.94801">
        <ele>142.41</ele>
        <time>2014-09-13T15:03:07Z</time>
      </trkpt>
      <trkpt lat="44.41486" lon="0.94801">
        <ele>141.93</ele>
        <time>2014-09-13T15:03:22Z</time>
      </trkpt>
      <trkpt lat="44.41485" lon="0.94802">
        <ele>141.93</ele>
        <time>2014-09-13T15:03:44Z</time>
      </trkpt>
      <trkpt lat="44.41485" lon="0.94801">
        <ele>141.45</ele>
        <time>2014-09-13T15:04:03Z</time>
      </trkpt>
      <trkpt lat="44.41485" lon="0.948">
        <ele>141.93</ele>
        <time>2014-09-13T15:04:28Z</time>
      </trkpt>
      <trkpt lat="44.41485" lon="0.94799">
        <ele>140.97</ele>
        <time>2014-09-13T15:04:52Z</time>
      </trkpt>
      <trkpt lat="44.41485" lon="0.94799">
        <ele>140.49</ele>
        <time>2014-09-13T15:05:13Z</time>
      </trkpt>
      <trkpt lat="44.41485" lon="0.94799">
        <ele>140.49</ele>
        <time>2014-09-13T15:05:26Z</time>
      </trkpt>
      <trkpt lat="44.41485" lon="0.94798">
        <ele>140.49</ele>
        <time>2014-09-13T15:05:46Z</time>
      </trkpt>
      <trkpt lat="44.41484" lon="0.948">
        <ele>140.01</ele>
        <time>2014-09-13T15:06:13Z</time>
      </trkpt>
      <trkpt lat="44.41468" lon="0.94839">
        <ele>140.97</ele>
        <time>2014-09-13T15:06:26Z</time>
      </trkpt>
      <trkpt lat="44.4145" lon="0.94883">
        <ele>145.78</ele>
        <time>2014-09-13T15:06:37Z</time>
      </trkpt>
      <trkpt lat="44.41431" lon="0.94926">
        <ele>150.58</ele>
        <time>2014-09-13T15:06:48Z</time>
      </trkpt>
      <trkpt lat="44.41412" lon="0.94977">
        <ele>156.83</ele>
        <time>2014-09-13T15:07:00Z</time>
      </trkpt>
      <trkpt lat="44.41385" lon="0.9501">
        <ele>157.79</ele>
        <time>2014-09-13T15:07:11Z</time>
      </trkpt>
      <trkpt lat="44.41346" lon="0.95053">
        <ele>156.83</ele>
        <time>2014-09-13T15:07:25Z</time>
      </trkpt>
      <trkpt lat="44.41315" lon="0.95095">
        <ele>158.75</ele>
        <time>2014-09-13T15:07:37Z</time>
      </trkpt>
      <trkpt lat="44.41291" lon="0.95151">
        <ele>156.83</ele>
        <time>2014-09-13T15:07:51Z</time>
      </trkpt>
      <trkpt lat="44.41259" lon="0.95239">
        <ele>154.91</ele>
        <time>2014-09-13T15:08:09Z</time>
      </trkpt>
      <trkpt lat="44.41223" lon="0.95301">
        <ele>156.83</ele>
        <time>2014-09-13T15:08:25Z</time>
      </trkpt>
      <trkpt lat="44.41184" lon="0.95353">
        <ele>161.64</ele>
        <time>2014-09-13T15:08:42Z</time>
      </trkpt>
      <trkpt lat="44.41139" lon="0.95409">
        <ele>161.64</ele>
        <time>2014-09-13T15:08:59Z</time>
      </trkpt>
      <trkpt lat="44.41128" lon="0.95415">
        <ele>160.68</ele>
        <time>2014-09-13T15:09:02Z</time>
      </trkpt>
      <trkpt lat="44.41104" lon="0.95426">
        <ele>159.72</ele>
        <time>2014-09-13T15:09:09Z</time>
      </trkpt>
      <trkpt lat="44.41047" lon="0.95453">
        <ele>159.24</ele>
        <time>2014-09-13T15:09:27Z</time>
      </trkpt>
      <trkpt lat="44.41" lon="0.95464">
        <ele>157.31</ele>
        <time>2014-09-13T15:09:40Z</time>
      </trkpt>
      <trkpt lat="44.40948" lon="0.9548">
        <ele>159.24</ele>
        <time>2014-09-13T15:09:55Z</time>
      </trkpt>
      <trkpt lat="44.40907" lon="0.95512">
        <ele>162.12</ele>
        <time>2014-09-13T15:10:11Z</time>
      </trkpt>
      <trkpt lat="44.40883" lon="0.95534">
        <ele>160.68</ele>
        <time>2014-09-13T15:10:24Z</time>
      </trkpt>
      <trkpt lat="44.40879" lon="0.95537">
        <ele>160.68</ele>
        <time>2014-09-13T15:10:37Z</time>
      </trkpt>
      <trkpt lat="44.40879" lon="0.95538">
        <ele>160.2</ele>
        <time>2014-09-13T15:11:07Z</time>
      </trkpt>
      <trkpt lat="44.4088" lon="0.95537">
        <ele>159.72</ele>
        <time>2014-09-13T15:11:38Z</time>
      </trkpt>
      <trkpt lat="44.4088" lon="0.95537">
        <ele>159.72</ele>
        <time>2014-09-13T15:11:55Z</time>
      </trkpt>
      <trkpt lat="44.4088" lon="0.95548">
        <ele>159.72</ele>
        <time>2014-09-13T15:11:59Z</time>
      </trkpt>
      <trkpt lat="44.40902" lon="0.95588">
        <ele>162.12</ele>
        <time>2014-09-13T15:12:12Z</time>
      </trkpt>
      <trkpt lat="44.40922" lon="0.95631">
        <ele>165</ele>
        <time>2014-09-13T15:12:25Z</time>
      </trkpt>
      <trkpt lat="44.40927" lon="0.95643">
        <ele>166.93</ele>
        <time>2014-09-13T15:12:29Z</time>
      </trkpt>
      <trkpt lat="44.40936" lon="0.95691">
        <ele>170.77</ele>
        <time>2014-09-13T15:12:44Z</time>
      </trkpt>
      <trkpt lat="44.40943" lon="0.95721">
        <ele>175.58</ele>
        <time>2014-09-13T15:12:57Z</time>
      </trkpt>
      <trkpt lat="44.40946" lon="0.95742">
        <ele>180.87</ele>
        <time>2014-09-13T15:13:08Z</time>
      </trkpt>
      <trkpt lat="44.40945" lon="0.95765">
        <ele>186.15</ele>
        <time>2014-09-13T15:13:20Z</time>
      </trkpt>
      <trkpt lat="44.40945" lon="0.95792">
        <ele>191.44</ele>
        <time>2014-09-13T15:13:34Z</time>
      </trkpt>
      <trkpt lat="44.4095" lon="0.9582">
        <ele>194.8</ele>
        <time>2014-09-13T15:13:48Z</time>
      </trkpt>
      <trkpt lat="44.40956" lon="0.95843">
        <ele>197.21</ele>
        <time>2014-09-13T15:13:58Z</time>
      </trkpt>
      <trkpt lat="44.40957" lon="0.95851">
        <ele>200.09</ele>
        <time>2014-09-13T15:14:10Z</time>
      </trkpt>
      <trkpt lat="44.40957" lon="0.95852">
        <ele>201.05</ele>
        <time>2014-09-13T15:14:33Z</time>
      </trkpt>
      <trkpt lat="44.40959" lon="0.95856">
        <ele>198.17</ele>
        <time>2014-09-13T15:15:01Z</time>
      </trkpt>
      <trkpt lat="44.4096" lon="0.95859">
        <ele>196.25</ele>
        <time>2014-09-13T15:15:23Z</time>
      </trkpt>
      <trkpt lat="44.40959" lon="0.95861">
        <ele>195.28</ele>
        <time>2014-09-13T15:15:39Z</time>
      </trkpt>
      <trkpt lat="44.4096" lon="0.95862">
        <ele>195.28</ele>
        <time>2014-09-13T15:16:01Z</time>
      </trkpt>
      <trkpt lat="44.40959" lon="0.95862">
        <ele>194.32</ele>
        <time>2014-09-13T15:16:24Z</time>
      </trkpt>
      <trkpt lat="44.40959" lon="0.95861">
        <ele>193.84</ele>
        <time>2014-09-13T15:16:48Z</time>
      </trkpt>
      <trkpt lat="44.4096" lon="0.95862">
        <ele>193.84</ele>
        <time>2014-09-13T15:17:15Z</time>
      </trkpt>
      <trkpt lat="44.4096" lon="0.95862">
        <ele>194.32</ele>
        <time>2014-09-13T15:17:43Z</time>
      </trkpt>
      <trkpt lat="44.4096" lon="0.95869">
        <ele>194.32</ele>
        <time>2014-09-13T15:18:06Z</time>
      </trkpt>
      <trkpt lat="44.40962" lon="0.95912">
        <ele>200.57</ele>
        <time>2014-09-13T15:18:19Z</time>
      </trkpt>
      <trkpt lat="44.40981" lon="0.95946">
        <ele>202.98</ele>
        <time>2014-09-13T15:18:32Z</time>
      </trkpt>
      <trkpt lat="44.40992" lon="0.95968">
        <ele>202.98</ele>
        <time>2014-09-13T15:18:39Z</time>
      </trkpt>
      <trkpt lat="44.41008" lon="0.9598">
        <ele>202.01</ele>
        <time>2014-09-13T15:18:43Z</time>
      </trkpt>
      <trkpt lat="44.41024" lon="0.95988">
        <ele>201.53</ele>
        <time>2014-09-13T15:18:46Z</time>
      </trkpt>
      <trkpt lat="44.41035" lon="0.96007">
        <ele>200.57</ele>
        <time>2014-09-13T15:18:50Z</time>
      </trkpt>
      <trkpt lat="44.41035" lon="0.96038">
        <ele>198.17</ele>
        <time>2014-09-13T15:18:54Z</time>
      </trkpt>
      <trkpt lat="44.41044" lon="0.96052">
        <ele>196.73</ele>
        <time>2014-09-13T15:18:57Z</time>
      </trkpt>
      <trkpt lat="44.41052" lon="0.96062">
        <ele>195.77</ele>
        <time>2014-09-13T15:18:59Z</time>
      </trkpt>
      <trkpt lat="44.41067" lon="0.96081">
        <ele>194.8</ele>
        <time>2014-09-13T15:19:03Z</time>
      </trkpt>
      <trkpt lat="44.41102" lon="0.9612">
        <ele>195.77</ele>
        <time>2014-09-13T15:19:15Z</time>
      </trkpt>
      <trkpt lat="44.41104" lon="0.96125">
        <ele>195.77</ele>
        <time>2014-09-13T15:19:16Z</time>
      </trkpt>
      <trkpt lat="44.41122" lon="0.96149">
        <ele>194.32</ele>
        <time>2014-09-13T15:19:21Z</time>
      </trkpt>
      <trkpt lat="44.41138" lon="0.96177">
        <ele>193.36</ele>
        <time>2014-09-13T15:19:25Z</time>
      </trkpt>
      <trkpt lat="44.41148" lon="0.96207">
        <ele>191.44</ele>
        <time>2014-09-13T15:19:29Z</time>
      </trkpt>
      <trkpt lat="44.41175" lon="0.96235">
        <ele>188.56</ele>
        <time>2014-09-13T15:19:36Z</time>
      </trkpt>
      <trkpt lat="44.41222" lon="0.96237">
        <ele>180.87</ele>
        <time>2014-09-13T15:19:44Z</time>
      </trkpt>
      <trkpt lat="44.41239" lon="0.96231">
        <ele>178.46</ele>
        <time>2014-09-13T15:19:47Z</time>
      </trkpt>
      <trkpt lat="44.41268" lon="0.96203">
        <ele>176.54</ele>
        <time>2014-09-13T15:19:53Z</time>
      </trkpt>
      <trkpt lat="44.41296" lon="0.96182">
        <ele>175.1</ele>
        <time>2014-09-13T15:20:00Z</time>
      </trkpt>
      <trkpt lat="44.41329" lon="0.96183">
        <ele>173.17</ele>
        <time>2014-09-13T15:20:07Z</time>
      </trkpt>
      <trkpt lat="44.41387" lon="0.96221">
        <ele>172.21</ele>
        <time>2014-09-13T15:20:20Z</time>
      </trkpt>
      <trkpt lat="44.4142" lon="0.9625">
        <ele>173.17</ele>
        <time>2014-09-13T15:20:34Z</time>
      </trkpt>
      <trkpt lat="44.41421" lon="0.96251">
        <ele>174.14</ele>
        <time>2014-09-13T15:20:48Z</time>
      </trkpt>
      <trkpt lat="44.41421" lon="0.96251">
        <ele>174.62</ele>
        <time>2014-09-13T15:21:20Z</time>
      </trkpt>
      <trkpt lat="44.41421" lon="0.96253">
        <ele>175.1</ele>
        <time>2014-09-13T15:21:37Z</time>
      </trkpt>
      <trkpt lat="44.41421" lon="0.96255">
        <ele>175.1</ele>
        <time>2014-09-13T15:21:38Z</time>
      </trkpt>
      <trkpt lat="44.41422" lon="0.96259">
        <ele>175.1</ele>
        <time>2014-09-13T15:21:39Z</time>
      </trkpt>
      <trkpt lat="44.41427" lon="0.96272">
        <ele>175.1</ele>
        <time>2014-09-13T15:21:42Z</time>
      </trkpt>
      <trkpt lat="44.41429" lon="0.96278">
        <ele>175.1</ele>
        <time>2014-09-13T15:21:43Z</time>
      </trkpt>
      <trkpt lat="44.41454" lon="0.96357">
        <ele>171.25</ele>
        <time>2014-09-13T15:21:51Z</time>
      </trkpt>
      <trkpt lat="44.41493" lon="0.96506">
        <ele>168.37</ele>
        <time>2014-09-13T15:22:04Z</time>
      </trkpt>
      <trkpt lat="44.41497" lon="0.96515">
        <ele>168.37</ele>
        <time>2014-09-13T15:22:05Z</time>
      </trkpt>
      <trkpt lat="44.41501" lon="0.96524">
        <ele>168.37</ele>
        <time>2014-09-13T15:22:06Z</time>
      </trkpt>
      <trkpt lat="44.41507" lon="0.96532">
        <ele>167.89</ele>
        <time>2014-09-13T15:22:07Z</time>
      </trkpt>
      <trkpt lat="44.41513" lon="0.96538">
        <ele>167.41</ele>
        <time>2014-09-13T15:22:08Z</time>
      </trkpt>
      <trkpt lat="44.41519" lon="0.96544">
        <ele>167.41</ele>
        <time>2014-09-13T15:22:09Z</time>
      </trkpt>
      <trkpt lat="44.41577" lon="0.96609">
        <ele>165</ele>
        <time>2014-09-13T15:22:20Z</time>
      </trkpt>
      <trkpt lat="44.4158" lon="0.96614">
        <ele>165</ele>
        <time>2014-09-13T15:22:21Z</time>
      </trkpt>
      <trkpt lat="44.41583" lon="0.96619">
        <ele>165</ele>
        <time>2014-09-13T15:22:22Z</time>
      </trkpt>
      <trkpt lat="44.41585" lon="0.96625">
        <ele>165</ele>
        <time>2014-09-13T15:22:23Z</time>
      </trkpt>
      <trkpt lat="44.41586" lon="0.96629">
        <ele>165</ele>
        <time>2014-09-13T15:22:24Z</time>
      </trkpt>
      <trkpt lat="44.41587" lon="0.96634">
        <ele>165</ele>
        <time>2014-09-13T15:22:25Z</time>
      </trkpt>
      <trkpt lat="44.41588" lon="0.96639">
        <ele>165</ele>
        <time>2014-09-13T15:22:26Z</time>
      </trkpt>
      <trkpt lat="44.41589" lon="0.96644">
        <ele>164.52</ele>
        <time>2014-09-13T15:22:27Z</time>
      </trkpt>
      <trkpt lat="44.41591" lon="0.96651">
        <ele>164.52</ele>
        <time>2014-09-13T15:22:28Z</time>
      </trkpt>
      <trkpt lat="44.41593" lon="0.96657">
        <ele>164.04</ele>
        <time>2014-09-13T15:22:29Z</time>
      </trkpt>
      <trkpt lat="44.41595" lon="0.96664">
        <ele>164.04</ele>
        <time>2014-09-13T15:22:30Z</time>
      </trkpt>
      <trkpt lat="44.41597" lon="0.96672">
        <ele>164.04</ele>
        <time>2014-09-13T15:22:31Z</time>
      </trkpt>
      <trkpt lat="44.41633" lon="0.968">
        <ele>161.64</ele>
        <time>2014-09-13T15:22:46Z</time>
      </trkpt>
      <trkpt lat="44.4164" lon="0.96816">
        <ele>161.16</ele>
        <time>2014-09-13T15:22:48Z</time>
      </trkpt>
      <trkpt lat="44.41679" lon="0.96875">
        <ele>156.83</ele>
        <time>2014-09-13T15:22:55Z</time>
      </trkpt>
      <trkpt lat="44.41684" lon="0.96886">
        <ele>156.35</ele>
        <time>2014-09-13T15:22:56Z</time>
      </trkpt>
      <trkpt lat="44.41689" lon="0.96899">
        <ele>155.39</ele>
        <time>2014-09-13T15:22:57Z</time>
      </trkpt>
      <trkpt lat="44.41719" lon="0.9703">
        <ele>154.43</ele>
        <time>2014-09-13T15:23:08Z</time>
      </trkpt>
      <trkpt lat="44.41721" lon="0.97037">
        <ele>154.91</ele>
        <time>2014-09-13T15:23:09Z</time>
      </trkpt>
      <trkpt lat="44.41724" lon="0.97042">
        <ele>155.39</ele>
        <time>2014-09-13T15:23:10Z</time>
      </trkpt>
      <trkpt lat="44.41727" lon="0.97047">
        <ele>155.87</ele>
        <time>2014-09-13T15:23:11Z</time>
      </trkpt>
      <trkpt lat="44.41731" lon="0.9705">
        <ele>156.35</ele>
        <time>2014-09-13T15:23:12Z</time>
      </trkpt>
      <trkpt lat="44.41735" lon="0.97052">
        <ele>156.83</ele>
        <time>2014-09-13T15:23:13Z</time>
      </trkpt>
      <trkpt lat="44.41738" lon="0.97054">
        <ele>157.31</ele>
        <time>2014-09-13T15:23:14Z</time>
      </trkpt>
      <trkpt lat="44.41762" lon="0.97065">
        <ele>159.72</ele>
        <time>2014-09-13T15:23:22Z</time>
      </trkpt>
      <trkpt lat="44.41763" lon="0.97067">
        <ele>159.72</ele>
        <time>2014-09-13T15:23:23Z</time>
      </trkpt>
      <trkpt lat="44.41763" lon="0.97068">
        <ele>159.72</ele>
        <time>2014-09-13T15:23:24Z</time>
      </trkpt>
      <trkpt lat="44.41764" lon="0.9707">
        <ele>159.72</ele>
        <time>2014-09-13T15:23:25Z</time>
      </trkpt>
      <trkpt lat="44.41766" lon="0.97072">
        <ele>159.72</ele>
        <time>2014-09-13T15:23:26Z</time>
      </trkpt>
      <trkpt lat="44.41769" lon="0.97074">
        <ele>160.2</ele>
        <time>2014-09-13T15:23:27Z</time>
      </trkpt>
      <trkpt lat="44.41772" lon="0.97074">
        <ele>160.2</ele>
        <time>2014-09-13T15:23:28Z</time>
      </trkpt>
      <trkpt lat="44.41777" lon="0.97074">
        <ele>160.2</ele>
        <time>2014-09-13T15:23:30Z</time>
      </trkpt>
      <trkpt lat="44.41779" lon="0.97073">
        <ele>160.2</ele>
        <time>2014-09-13T15:23:31Z</time>
      </trkpt>
      <trkpt lat="44.41809" lon="0.97063">
        <ele>161.16</ele>
        <time>2014-09-13T15:23:43Z</time>
      </trkpt>
      <trkpt lat="44.41851" lon="0.97055">
        <ele>161.64</ele>
        <time>2014-09-13T15:23:54Z</time>
      </trkpt>
      <trkpt lat="44.41855" lon="0.97054">
        <ele>161.64</ele>
        <time>2014-09-13T15:23:55Z</time>
      </trkpt>
      <trkpt lat="44.41859" lon="0.97053">
        <ele>161.64</ele>
        <time>2014-09-13T15:23:56Z</time>
      </trkpt>
      <trkpt lat="44.41884" lon="0.97042">
        <ele>163.08</ele>
        <time>2014-09-13T15:24:03Z</time>
      </trkpt>
      <trkpt lat="44.41887" lon="0.97044">
        <ele>162.6</ele>
        <time>2014-09-13T15:24:04Z</time>
      </trkpt>
      <trkpt lat="44.41889" lon="0.97048">
        <ele>162.6</ele>
        <time>2014-09-13T15:24:05Z</time>
      </trkpt>
      <trkpt lat="44.4189" lon="0.97053">
        <ele>162.6</ele>
        <time>2014-09-13T15:24:06Z</time>
      </trkpt>
      <trkpt lat="44.4189" lon="0.97058">
        <ele>162.6</ele>
        <time>2014-09-13T15:24:07Z</time>
      </trkpt>
      <trkpt lat="44.4189" lon="0.97063">
        <ele>162.6</ele>
        <time>2014-09-13T15:24:08Z</time>
      </trkpt>
      <trkpt lat="44.41889" lon="0.97067">
        <ele>162.6</ele>
        <time>2014-09-13T15:24:09Z</time>
      </trkpt>
      <trkpt lat="44.41888" lon="0.97071">
        <ele>163.08</ele>
        <time>2014-09-13T15:24:10Z</time>
      </trkpt>
      <trkpt lat="44.41888" lon="0.97075">
        <ele>163.08</ele>
        <time>2014-09-13T15:24:11Z</time>
      </trkpt>
      <trkpt lat="44.41888" lon="0.97079">
        <ele>163.08</ele>
        <time>2014-09-13T15:24:12Z</time>
      </trkpt>
      <trkpt lat="44.41889" lon="0.97083">
        <ele>163.08</ele>
        <time>2014-09-13T15:24:13Z</time>
      </trkpt>
      <trkpt lat="44.41889" lon="0.97087">
        <ele>163.08</ele>
        <time>2014-09-13T15:24:14Z</time>
      </trkpt>
      <trkpt lat="44.41889" lon="0.97091">
        <ele>164.04</ele>
        <time>2014-09-13T15:24:23Z</time>
      </trkpt>
      <trkpt lat="44.4189" lon="0.9709">
        <ele>164.04</ele>
        <time>2014-09-13T15:24:56Z</time>
      </trkpt>
      <trkpt lat="44.41889" lon="0.9709">
        <ele>163.56</ele>
        <time>2014-09-13T15:25:26Z</time>
      </trkpt>
      <trkpt lat="44.41889" lon="0.97089">
        <ele>163.56</ele>
        <time>2014-09-13T15:25:50Z</time>
      </trkpt>
      <trkpt lat="44.41889" lon="0.97089">
        <ele>163.56</ele>
        <time>2014-09-13T15:26:15Z</time>
      </trkpt>
      <trkpt lat="44.41888" lon="0.97088">
        <ele>164.52</ele>
        <time>2014-09-13T15:26:42Z</time>
      </trkpt>
      <trkpt lat="44.41888" lon="0.97089">
        <ele>165</ele>
        <time>2014-09-13T15:27:04Z</time>
      </trkpt>
      <trkpt lat="44.41888" lon="0.9709">
        <ele>164.04</ele>
        <time>2014-09-13T15:27:30Z</time>
      </trkpt>
      <trkpt lat="44.41888" lon="0.97089">
        <ele>163.56</ele>
        <time>2014-09-13T15:27:54Z</time>
      </trkpt>
      <trkpt lat="44.41887" lon="0.97089">
        <ele>163.56</ele>
        <time>2014-09-13T15:28:19Z</time>
      </trkpt>
      <trkpt lat="44.41889" lon="0.97091">
        <ele>163.08</ele>
        <time>2014-09-13T15:28:36Z</time>
      </trkpt>
      <trkpt lat="44.41889" lon="0.97092">
        <ele>163.08</ele>
        <time>2014-09-13T15:28:48Z</time>
      </trkpt>
      <trkpt lat="44.4189" lon="0.97093">
        <ele>163.56</ele>
        <time>2014-09-13T15:28:49Z</time>
      </trkpt>
      <trkpt lat="44.4189" lon="0.97095">
        <ele>163.56</ele>
        <time>2014-09-13T15:28:50Z</time>
      </trkpt>
      <trkpt lat="44.4189" lon="0.97097">
        <ele>164.04</ele>
        <time>2014-09-13T15:28:51Z</time>
      </trkpt>
      <trkpt lat="44.4189" lon="0.971">
        <ele>164.04</ele>
        <time>2014-09-13T15:28:52Z</time>
      </trkpt>
      <trkpt lat="44.4189" lon="0.97102">
        <ele>164.04</ele>
        <time>2014-09-13T15:28:53Z</time>
      </trkpt>
      <trkpt lat="44.41889" lon="0.97104">
        <ele>164.52</ele>
        <time>2014-09-13T15:28:54Z</time>
      </trkpt>
      <trkpt lat="44.41889" lon="0.97107">
        <ele>165</ele>
        <time>2014-09-13T15:28:55Z</time>
      </trkpt>
      <trkpt lat="44.41889" lon="0.9711">
        <ele>165.48</ele>
        <time>2014-09-13T15:28:56Z</time>
      </trkpt>
      <trkpt lat="44.41889" lon="0.97113">
        <ele>165.48</ele>
        <time>2014-09-13T15:28:57Z</time>
      </trkpt>
      <trkpt lat="44.4189" lon="0.97116">
        <ele>165.96</ele>
        <time>2014-09-13T15:28:58Z</time>
      </trkpt>
      <trkpt lat="44.41888" lon="0.97156">
        <ele>168.85</ele>
        <time>2014-09-13T15:29:11Z</time>
      </trkpt>
      <trkpt lat="44.41899" lon="0.97176">
        <ele>171.25</ele>
        <time>2014-09-13T15:29:20Z</time>
      </trkpt>
      <trkpt lat="44.419" lon="0.97178">
        <ele>171.73</ele>
        <time>2014-09-13T15:29:21Z</time>
      </trkpt>
      <trkpt lat="44.41901" lon="0.97181">
        <ele>171.73</ele>
        <time>2014-09-13T15:29:22Z</time>
      </trkpt>
      <trkpt lat="44.41902" lon="0.97183">
        <ele>172.21</ele>
        <time>2014-09-13T15:29:23Z</time>
      </trkpt>
      <trkpt lat="44.41902" lon="0.97186">
        <ele>172.21</ele>
        <time>2014-09-13T15:29:24Z</time>
      </trkpt>
      <trkpt lat="44.41902" lon="0.97189">
        <ele>172.21</ele>
        <time>2014-09-13T15:29:25Z</time>
      </trkpt>
      <trkpt lat="44.41902" lon="0.97192">
        <ele>172.69</ele>
        <time>2014-09-13T15:29:26Z</time>
      </trkpt>
      <trkpt lat="44.41902" lon="0.97242">
        <ele>174.62</ele>
        <time>2014-09-13T15:29:42Z</time>
      </trkpt>
      <trkpt lat="44.41899" lon="0.97281">
        <ele>177.5</ele>
        <time>2014-09-13T15:29:55Z</time>
      </trkpt>
      <trkpt lat="44.4188" lon="0.97323">
        <ele>179.9</ele>
        <time>2014-09-13T15:30:10Z</time>
      </trkpt>
      <trkpt lat="44.41874" lon="0.97378">
        <ele>183.27</ele>
        <time>2014-09-13T15:30:27Z</time>
      </trkpt>
      <trkpt lat="44.41886" lon="0.97436">
        <ele>183.75</ele>
        <time>2014-09-13T15:30:41Z</time>
      </trkpt>
      <trkpt lat="44.41919" lon="0.97524">
        <ele>182.31</ele>
        <time>2014-09-13T15:30:55Z</time>
      </trkpt>
      <trkpt lat="44.41947" lon="0.97601">
        <ele>184.71</ele>
        <time>2014-09-13T15:31:10Z</time>
      </trkpt>
      <trkpt lat="44.41967" lon="0.97689">
        <ele>188.56</ele>
        <time>2014-09-13T15:31:26Z</time>
      </trkpt>
      <trkpt lat="44.41972" lon="0.9776">
        <ele>191.44</ele>
        <time>2014-09-13T15:31:39Z</time>
      </trkpt>
      <trkpt lat="44.41972" lon="0.97766">
        <ele>191.44</ele>
        <time>2014-09-13T15:31:40Z</time>
      </trkpt>
      <trkpt lat="44.4197" lon="0.97833">
        <ele>193.84</ele>
        <time>2014-09-13T15:31:52Z</time>
      </trkpt>
      <trkpt lat="44.4197" lon="0.97839">
        <ele>193.84</ele>
        <time>2014-09-13T15:31:53Z</time>
      </trkpt>
      <trkpt lat="44.4197" lon="0.97845">
        <ele>193.84</ele>
        <time>2014-09-13T15:31:54Z</time>
      </trkpt>
      <trkpt lat="44.4197" lon="0.97851">
        <ele>193.84</ele>
        <time>2014-09-13T15:31:55Z</time>
      </trkpt>
      <trkpt lat="44.4197" lon="0.97857">
        <ele>193.84</ele>
        <time>2014-09-13T15:31:56Z</time>
      </trkpt>
      <trkpt lat="44.41971" lon="0.97939">
        <ele>191.92</ele>
        <time>2014-09-13T15:32:06Z</time>
      </trkpt>
      <trkpt lat="44.41974" lon="0.97949">
        <ele>190.96</ele>
        <time>2014-09-13T15:32:07Z</time>
      </trkpt>
      <trkpt lat="44.41977" lon="0.97958">
        <ele>190.48</ele>
        <time>2014-09-13T15:32:08Z</time>
      </trkpt>
      <trkpt lat="44.41982" lon="0.97966">
        <ele>190.48</ele>
        <time>2014-09-13T15:32:09Z</time>
      </trkpt>
      <trkpt lat="44.41988" lon="0.97973">
        <ele>190</ele>
        <time>2014-09-13T15:32:10Z</time>
      </trkpt>
      <trkpt lat="44.41995" lon="0.97979">
        <ele>190</ele>
        <time>2014-09-13T15:32:11Z</time>
      </trkpt>
      <trkpt lat="44.42002" lon="0.97983">
        <ele>190</ele>
        <time>2014-09-13T15:32:12Z</time>
      </trkpt>
      <trkpt lat="44.4206" lon="0.98016">
        <ele>190.48</ele>
        <time>2014-09-13T15:32:22Z</time>
      </trkpt>
      <trkpt lat="44.42061" lon="0.9802">
        <ele>190.96</ele>
        <time>2014-09-13T15:32:23Z</time>
      </trkpt>
      <trkpt lat="44.42061" lon="0.98026">
        <ele>191.44</ele>
        <time>2014-09-13T15:32:25Z</time>
      </trkpt>
      <trkpt lat="44.4206" lon="0.98036">
        <ele>190.96</ele>
        <time>2014-09-13T15:32:40Z</time>
      </trkpt>
      <trkpt lat="44.4206" lon="0.98036">
        <ele>191.44</ele>
        <time>2014-09-13T15:33:04Z</time>
      </trkpt>
      <trkpt lat="44.4206" lon="0.98036">
        <ele>191.92</ele>
        <time>2014-09-13T15:33:32Z</time>
      </trkpt>
      <trkpt lat="44.42059" lon="0.98042">
        <ele>191.44</ele>
        <time>2014-09-13T15:33:40Z</time>
      </trkpt>
      <trkpt lat="44.42056" lon="0.98087">
        <ele>192.4</ele>
        <time>2014-09-13T15:33:56Z</time>
      </trkpt>
      <trkpt lat="44.4206" lon="0.98141">
        <ele>194.32</ele>
        <time>2014-09-13T15:34:08Z</time>
      </trkpt>
      <trkpt lat="44.42061" lon="0.98147">
        <ele>194.32</ele>
        <time>2014-09-13T15:34:09Z</time>
      </trkpt>
      <trkpt lat="44.42065" lon="0.98172">
        <ele>193.36</ele>
        <time>2014-09-13T15:34:13Z</time>
      </trkpt>
      <trkpt lat="44.42067" lon="0.98206">
        <ele>190.96</ele>
        <time>2014-09-13T15:34:19Z</time>
      </trkpt>
      <trkpt lat="44.42071" lon="0.98228">
        <ele>190.48</ele>
        <time>2014-09-13T15:34:23Z</time>
      </trkpt>
      <trkpt lat="44.42072" lon="0.98242">
        <ele>189.04</ele>
        <time>2014-09-13T15:34:34Z</time>
      </trkpt>
      <trkpt lat="44.42073" lon="0.98245">
        <ele>189.04</ele>
        <time>2014-09-13T15:34:36Z</time>
      </trkpt>
      <trkpt lat="44.42083" lon="0.98282">
        <ele>189.52</ele>
        <time>2014-09-13T15:34:52Z</time>
      </trkpt>
      <trkpt lat="44.42092" lon="0.98308">
        <ele>190.96</ele>
        <time>2014-09-13T15:35:05Z</time>
      </trkpt>
      <trkpt lat="44.421" lon="0.98336">
        <ele>193.36</ele>
        <time>2014-09-13T15:35:19Z</time>
      </trkpt>
      <trkpt lat="44.42105" lon="0.98354">
        <ele>194.32</ele>
        <time>2014-09-13T15:35:29Z</time>
      </trkpt>
      <trkpt lat="44.42102" lon="0.98372">
        <ele>196.25</ele>
        <time>2014-09-13T15:35:39Z</time>
      </trkpt>
      <trkpt lat="44.42104" lon="0.98391">
        <ele>197.21</ele>
        <time>2014-09-13T15:35:48Z</time>
      </trkpt>
      <trkpt lat="44.42124" lon="0.98413">
        <ele>200.57</ele>
        <time>2014-09-13T15:36:05Z</time>
      </trkpt>
      <trkpt lat="44.42145" lon="0.98432">
        <ele>204.42</ele>
        <time>2014-09-13T15:36:20Z</time>
      </trkpt>
      <trkpt lat="44.42172" lon="0.98457">
        <ele>205.86</ele>
        <time>2014-09-13T15:36:38Z</time>
      </trkpt>
      <trkpt lat="44.42189" lon="0.98478">
        <ele>206.82</ele>
        <time>2014-09-13T15:36:52Z</time>
      </trkpt>
      <trkpt lat="44.42212" lon="0.98519">
        <ele>204.9</ele>
        <time>2014-09-13T15:37:07Z</time>
      </trkpt>
      <trkpt lat="44.42216" lon="0.98524">
        <ele>205.38</ele>
        <time>2014-09-13T15:37:17Z</time>
      </trkpt>
      <trkpt lat="44.42216" lon="0.98524">
        <ele>205.38</ele>
        <time>2014-09-13T15:37:35Z</time>
      </trkpt>
      <trkpt lat="44.42216" lon="0.98523">
        <ele>205.38</ele>
        <time>2014-09-13T15:37:53Z</time>
      </trkpt>
      <trkpt lat="44.42216" lon="0.98524">
        <ele>205.38</ele>
        <time>2014-09-13T15:38:13Z</time>
      </trkpt>
      <trkpt lat="44.42216" lon="0.98524">
        <ele>205.86</ele>
        <time>2014-09-13T15:38:35Z</time>
      </trkpt>
      <trkpt lat="44.42217" lon="0.98525">
        <ele>205.86</ele>
        <time>2014-09-13T15:38:57Z</time>
      </trkpt>
      <trkpt lat="44.42217" lon="0.98525">
        <ele>206.34</ele>
        <time>2014-09-13T15:39:24Z</time>
      </trkpt>
      <trkpt lat="44.42217" lon="0.98524">
        <ele>205.86</ele>
        <time>2014-09-13T15:39:52Z</time>
      </trkpt>
      <trkpt lat="44.42216" lon="0.98524">
        <ele>205.86</ele>
        <time>2014-09-13T15:40:14Z</time>
      </trkpt>
      <trkpt lat="44.42217" lon="0.98524">
        <ele>205.38</ele>
        <time>2014-09-13T15:40:36Z</time>
      </trkpt>
      <trkpt lat="44.42216" lon="0.98523">
        <ele>205.38</ele>
        <time>2014-09-13T15:41:04Z</time>
      </trkpt>
      <trkpt lat="44.42216" lon="0.98524">
        <ele>205.86</ele>
        <time>2014-09-13T15:41:29Z</time>
      </trkpt>
      <trkpt lat="44.42216" lon="0.98524">
        <ele>205.38</ele>
        <time>2014-09-13T15:41:51Z</time>
      </trkpt>
      <trkpt lat="44.42226" lon="0.98541">
        <ele>205.38</ele>
        <time>2014-09-13T15:42:07Z</time>
      </trkpt>
      <trkpt lat="44.42273" lon="0.9861">
        <ele>206.34</ele>
        <time>2014-09-13T15:42:22Z</time>
      </trkpt>
      <trkpt lat="44.42285" lon="0.98629">
        <ele>206.34</ele>
        <time>2014-09-13T15:42:26Z</time>
      </trkpt>
      <trkpt lat="44.42303" lon="0.98655">
        <ele>206.82</ele>
        <time>2014-09-13T15:42:32Z</time>
      </trkpt>
      <trkpt lat="44.42357" lon="0.98738">
        <ele>204.9</ele>
        <time>2014-09-13T15:42:48Z</time>
      </trkpt>
      <trkpt lat="44.42368" lon="0.98764">
        <ele>204.42</ele>
        <time>2014-09-13T15:42:52Z</time>
      </trkpt>
      <trkpt lat="44.42374" lon="0.98785">
        <ele>204.42</ele>
        <time>2014-09-13T15:42:55Z</time>
      </trkpt>
      <trkpt lat="44.42377" lon="0.9879">
        <ele>204.9</ele>
        <time>2014-09-13T15:42:56Z</time>
      </trkpt>
      <trkpt lat="44.42382" lon="0.98793">
        <ele>205.38</ele>
        <time>2014-09-13T15:42:57Z</time>
      </trkpt>
      <trkpt lat="44.42387" lon="0.98794">
        <ele>205.38</ele>
        <time>2014-09-13T15:42:58Z</time>
      </trkpt>
      <trkpt lat="44.42391" lon="0.98794">
        <ele>205.86</ele>
        <time>2014-09-13T15:42:59Z</time>
      </trkpt>
      <trkpt lat="44.42396" lon="0.98793">
        <ele>205.86</ele>
        <time>2014-09-13T15:43:00Z</time>
      </trkpt>
      <trkpt lat="44.42417" lon="0.9879">
        <ele>206.82</ele>
        <time>2014-09-13T15:43:05Z</time>
      </trkpt>
      <trkpt lat="44.42441" lon="0.98785">
        <ele>207.78</ele>
        <time>2014-09-13T15:43:11Z</time>
      </trkpt>
      <trkpt lat="44.42445" lon="0.98784">
        <ele>207.78</ele>
        <time>2014-09-13T15:43:12Z</time>
      </trkpt>
      <trkpt lat="44.42449" lon="0.98783">
        <ele>207.3</ele>
        <time>2014-09-13T15:43:13Z</time>
      </trkpt>
      <trkpt lat="44.42487" lon="0.98774">
        <ele>206.82</ele>
        <time>2014-09-13T15:43:21Z</time>
      </trkpt>
      <trkpt lat="44.42493" lon="0.98773">
        <ele>206.82</ele>
        <time>2014-09-13T15:43:22Z</time>
      </trkpt>
      <trkpt lat="44.42587" lon="0.98759">
        <ele>203.46</ele>
        <time>2014-09-13T15:43:37Z</time>
      </trkpt>
      <trkpt lat="44.42627" lon="0.98756">
        <ele>203.94</ele>
        <time>2014-09-13T15:43:44Z</time>
      </trkpt>
      <trkpt lat="44.42681" lon="0.98755">
        <ele>206.82</ele>
        <time>2014-09-13T15:43:57Z</time>
      </trkpt>
      <trkpt lat="44.42753" lon="0.98727">
        <ele>206.82</ele>
        <time>2014-09-13T15:44:13Z</time>
      </trkpt>
      <trkpt lat="44.42783" lon="0.98719">
        <ele>203.94</ele>
        <time>2014-09-13T15:44:18Z</time>
      </trkpt>
      <trkpt lat="44.42788" lon="0.9872">
        <ele>203.94</ele>
        <time>2014-09-13T15:44:19Z</time>
      </trkpt>
      <trkpt lat="44.42793" lon="0.98722">
        <ele>203.46</ele>
        <time>2014-09-13T15:44:20Z</time>
      </trkpt>
      <trkpt lat="44.42797" lon="0.98725">
        <ele>202.98</ele>
        <time>2014-09-13T15:44:21Z</time>
      </trkpt>
      <trkpt lat="44.42801" lon="0.98729">
        <ele>202.98</ele>
        <time>2014-09-13T15:44:22Z</time>
      </trkpt>
      <trkpt lat="44.42804" lon="0.98734">
        <ele>202.98</ele>
        <time>2014-09-13T15:44:23Z</time>
      </trkpt>
      <trkpt lat="44.4284" lon="0.98794">
        <ele>203.46</ele>
        <time>2014-09-13T15:44:36Z</time>
      </trkpt>
      <trkpt lat="44.42843" lon="0.98797">
        <ele>203.46</ele>
        <time>2014-09-13T15:44:37Z</time>
      </trkpt>
      <trkpt lat="44.429" lon="0.98843">
        <ele>196.73</ele>
        <time>2014-09-13T15:44:48Z</time>
      </trkpt>
      <trkpt lat="44.42997" lon="0.98932">
        <ele>184.71</ele>
        <time>2014-09-13T15:45:00Z</time>
      </trkpt>
      <trkpt lat="44.43034" lon="0.98966">
        <ele>182.79</ele>
        <time>2014-09-13T15:45:05Z</time>
      </trkpt>
      <trkpt lat="44.43054" lon="0.98956">
        <ele>183.27</ele>
        <time>2014-09-13T15:45:12Z</time>
      </trkpt>
      <trkpt lat="44.43075" lon="0.9895">
        <ele>184.23</ele>
        <time>2014-09-13T15:45:20Z</time>
      </trkpt>
      <trkpt lat="44.43078" lon="0.98947">
        <ele>184.23</ele>
        <time>2014-09-13T15:45:21Z</time>
      </trkpt>
      <trkpt lat="44.43109" lon="0.98943">
        <ele>185.67</ele>
        <time>2014-09-13T15:45:31Z</time>
      </trkpt>
      <trkpt lat="44.4316" lon="0.98963">
        <ele>189.52</ele>
        <time>2014-09-13T15:45:47Z</time>
      </trkpt>
      <trkpt lat="44.43199" lon="0.98984">
        <ele>190.96</ele>
        <time>2014-09-13T15:45:59Z</time>
      </trkpt>
      <trkpt lat="44.43233" lon="0.99008">
        <ele>193.36</ele>
        <time>2014-09-13T15:46:12Z</time>
      </trkpt>
      <trkpt lat="44.43264" lon="0.99034">
        <ele>194.8</ele>
        <time>2014-09-13T15:46:26Z</time>
      </trkpt>
      <trkpt lat="44.43286" lon="0.99032">
        <ele>197.21</ele>
        <time>2014-09-13T15:46:37Z</time>
      </trkpt>
      <trkpt lat="44.43313" lon="0.98985">
        <ele>199.61</ele>
        <time>2014-09-13T15:46:55Z</time>
      </trkpt>
      <trkpt lat="44.43344" lon="0.98972">
        <ele>201.05</ele>
        <time>2014-09-13T15:47:08Z</time>
      </trkpt>
      <trkpt lat="44.43378" lon="0.98978">
        <ele>202.49</ele>
        <time>2014-09-13T15:47:24Z</time>
      </trkpt>
      <trkpt lat="44.43381" lon="0.98978">
        <ele>202.49</ele>
        <time>2014-09-13T15:47:26Z</time>
      </trkpt>
      <trkpt lat="44.43407" lon="0.98987">
        <ele>202.01</ele>
        <time>2014-09-13T15:47:40Z</time>
      </trkpt>
      <trkpt lat="44.43441" lon="0.99">
        <ele>202.01</ele>
        <time>2014-09-13T15:47:55Z</time>
      </trkpt>
      <trkpt lat="44.43472" lon="0.99011">
        <ele>202.98</ele>
        <time>2014-09-13T15:48:11Z</time>
      </trkpt>
      <trkpt lat="44.43476" lon="0.99011">
        <ele>202.98</ele>
        <time>2014-09-13T15:48:14Z</time>
      </trkpt>
      <trkpt lat="44.43481" lon="0.99013">
        <ele>203.46</ele>
        <time>2014-09-13T15:48:18Z</time>
      </trkpt>
      <trkpt lat="44.43487" lon="0.99016">
        <ele>203.46</ele>
        <time>2014-09-13T15:48:22Z</time>
      </trkpt>
      <trkpt lat="44.43502" lon="0.99022">
        <ele>205.38</ele>
        <time>2014-09-13T15:48:37Z</time>
      </trkpt>
      <trkpt lat="44.43505" lon="0.99023">
        <ele>203.46</ele>
        <time>2014-09-13T15:49:00Z</time>
      </trkpt>
      <trkpt lat="44.43525" lon="0.99029">
        <ele>204.9</ele>
        <time>2014-09-13T15:49:10Z</time>
      </trkpt>
      <trkpt lat="44.43571" lon="0.9905">
        <ele>205.38</ele>
        <time>2014-09-13T15:49:23Z</time>
      </trkpt>
      <trkpt lat="44.43623" lon="0.99063">
        <ele>205.86</ele>
        <time>2014-09-13T15:49:39Z</time>
      </trkpt>
      <trkpt lat="44.43661" lon="0.99069">
        <ele>204.9</ele>
        <time>2014-09-13T15:49:50Z</time>
      </trkpt>
      <trkpt lat="44.43698" lon="0.99066">
        <ele>202.98</ele>
        <time>2014-09-13T15:50:02Z</time>
      </trkpt>
      <trkpt lat="44.43719" lon="0.9906">
        <ele>200.57</ele>
        <time>2014-09-13T15:50:08Z</time>
      </trkpt>
      <trkpt lat="44.43737" lon="0.99054">
        <ele>198.65</ele>
        <time>2014-09-13T15:50:12Z</time>
      </trkpt>
      <trkpt lat="44.43791" lon="0.99031">
        <ele>193.84</ele>
        <time>2014-09-13T15:50:25Z</time>
      </trkpt>
      <trkpt lat="44.43805" lon="0.99024">
        <ele>192.4</ele>
        <time>2014-09-13T15:50:28Z</time>
      </trkpt>
      <trkpt lat="44.43817" lon="0.99016">
        <ele>191.44</ele>
        <time>2014-09-13T15:50:31Z</time>
      </trkpt>
      <trkpt lat="44.43832" lon="0.99001">
        <ele>190</ele>
        <time>2014-09-13T15:50:35Z</time>
      </trkpt>
      <trkpt lat="44.43847" lon="0.9899">
        <ele>188.56</ele>
        <time>2014-09-13T15:50:39Z</time>
      </trkpt>
      <trkpt lat="44.43874" lon="0.98969">
        <ele>186.15</ele>
        <time>2014-09-13T15:50:48Z</time>
      </trkpt>
      <trkpt lat="44.43908" lon="0.98942">
        <ele>184.23</ele>
        <time>2014-09-13T15:50:58Z</time>
      </trkpt>
      <trkpt lat="44.43963" lon="0.98915">
        <ele>178.94</ele>
        <time>2014-09-13T15:51:06Z</time>
      </trkpt>
      <trkpt lat="44.43993" lon="0.98893">
        <ele>174.14</ele>
        <time>2014-09-13T15:51:11Z</time>
      </trkpt>
      <trkpt lat="44.44046" lon="0.98852">
        <ele>163.56</ele>
        <time>2014-09-13T15:51:20Z</time>
      </trkpt>
      <trkpt lat="44.44124" lon="0.98824">
        <ele>149.62</ele>
        <time>2014-09-13T15:51:31Z</time>
      </trkpt>
      <trkpt lat="44.44151" lon="0.9882">
        <ele>146.74</ele>
        <time>2014-09-13T15:51:35Z</time>
      </trkpt>
      <trkpt lat="44.44231" lon="0.98762">
        <ele>137.61</ele>
        <time>2014-09-13T15:51:46Z</time>
      </trkpt>
      <trkpt lat="44.44254" lon="0.98744">
        <ele>134.24</ele>
        <time>2014-09-13T15:51:50Z</time>
      </trkpt>
      <trkpt lat="44.44323" lon="0.98737">
        <ele>123.19</ele>
        <time>2014-09-13T15:52:00Z</time>
      </trkpt>
      <trkpt lat="44.44327" lon="0.98736">
        <ele>122.71</ele>
        <time>2014-09-13T15:52:01Z</time>
      </trkpt>
      <trkpt lat="44.44329" lon="0.98734">
        <ele>122.22</ele>
        <time>2014-09-13T15:52:02Z</time>
      </trkpt>
      <trkpt lat="44.44331" lon="0.98734">
        <ele>121.74</ele>
        <time>2014-09-13T15:52:03Z</time>
      </trkpt>
      <trkpt lat="44.44334" lon="0.98732">
        <ele>120.78</ele>
        <time>2014-09-13T15:52:15Z</time>
      </trkpt>
      <trkpt lat="44.44336" lon="0.98731">
        <ele>119.82</ele>
        <time>2014-09-13T15:52:33Z</time>
      </trkpt>
      <trkpt lat="44.44336" lon="0.98732">
        <ele>118.86</ele>
        <time>2014-09-13T15:52:59Z</time>
      </trkpt>
      <trkpt lat="44.44336" lon="0.98731">
        <ele>117.9</ele>
        <time>2014-09-13T15:53:22Z</time>
      </trkpt>
      <trkpt lat="44.44337" lon="0.98731">
        <ele>117.9</ele>
        <time>2014-09-13T15:53:47Z</time>
      </trkpt>
      <trkpt lat="44.44339" lon="0.98731">
        <ele>117.42</ele>
        <time>2014-09-13T15:53:54Z</time>
      </trkpt>
      <trkpt lat="44.44341" lon="0.98732">
        <ele>117.42</ele>
        <time>2014-09-13T15:53:55Z</time>
      </trkpt>
      <trkpt lat="44.44343" lon="0.98732">
        <ele>117.42</ele>
        <time>2014-09-13T15:53:56Z</time>
      </trkpt>
      <trkpt lat="44.44346" lon="0.98731">
        <ele>117.42</ele>
        <time>2014-09-13T15:53:57Z</time>
      </trkpt>
      <trkpt lat="44.44349" lon="0.98731">
        <ele>117.42</ele>
        <time>2014-09-13T15:53:58Z</time>
      </trkpt>
      <trkpt lat="44.44356" lon="0.98731">
        <ele>116.94</ele>
        <time>2014-09-13T15:54:00Z</time>
      </trkpt>
      <trkpt lat="44.4436" lon="0.9873">
        <ele>116.46</ele>
        <time>2014-09-13T15:54:01Z</time>
      </trkpt>
      <trkpt lat="44.44365" lon="0.9873">
        <ele>116.46</ele>
        <time>2014-09-13T15:54:02Z</time>
      </trkpt>
      <trkpt lat="44.44369" lon="0.98731">
        <ele>115.98</ele>
        <time>2014-09-13T15:54:03Z</time>
      </trkpt>
      <trkpt lat="44.44375" lon="0.98731">
        <ele>115.5</ele>
        <time>2014-09-13T15:54:04Z</time>
      </trkpt>
      <trkpt lat="44.44458" lon="0.98725">
        <ele>111.17</ele>
        <time>2014-09-13T15:54:16Z</time>
      </trkpt>
      <trkpt lat="44.44505" lon="0.98732">
        <ele>111.17</ele>
        <time>2014-09-13T15:54:24Z</time>
      </trkpt>
      <trkpt lat="44.44508" lon="0.98731">
        <ele>111.17</ele>
        <time>2014-09-13T15:54:25Z</time>
      </trkpt>
      <trkpt lat="44.44509" lon="0.98729">
        <ele>111.65</ele>
        <time>2014-09-13T15:54:26Z</time>
      </trkpt>
      <trkpt lat="44.44511" lon="0.98727">
        <ele>111.65</ele>
        <time>2014-09-13T15:54:27Z</time>
      </trkpt>
      <trkpt lat="44.44512" lon="0.98724">
        <ele>111.65</ele>
        <time>2014-09-13T15:54:28Z</time>
      </trkpt>
      <trkpt lat="44.44512" lon="0.9872">
        <ele>111.65</ele>
        <time>2014-09-13T15:54:29Z</time>
      </trkpt>
      <trkpt lat="44.44511" lon="0.98715">
        <ele>111.65</ele>
        <time>2014-09-13T15:54:30Z</time>
      </trkpt>
      <trkpt lat="44.44492" lon="0.98633">
        <ele>110.21</ele>
        <time>2014-09-13T15:54:43Z</time>
      </trkpt>
      <trkpt lat="44.44477" lon="0.98494">
        <ele>108.29</ele>
        <time>2014-09-13T15:55:01Z</time>
      </trkpt>
      <trkpt lat="44.44479" lon="0.98327">
        <ele>108.77</ele>
        <time>2014-09-13T15:55:22Z</time>
      </trkpt>
      <trkpt lat="44.44504" lon="0.98203">
        <ele>108.29</ele>
        <time>2014-09-13T15:55:38Z</time>
      </trkpt>
      <trkpt lat="44.44537" lon="0.98052">
        <ele>107.81</ele>
        <time>2014-09-13T15:55:57Z</time>
      </trkpt>
      <trkpt lat="44.4455" lon="0.98">
        <ele>108.29</ele>
        <time>2014-09-13T15:56:04Z</time>
      </trkpt>
      <trkpt lat="44.44584" lon="0.97926">
        <ele>109.73</ele>
        <time>2014-09-13T15:56:16Z</time>
      </trkpt>
      <trkpt lat="44.44585" lon="0.97919">
        <ele>109.73</ele>
        <time>2014-09-13T15:56:17Z</time>
      </trkpt>
      <trkpt lat="44.44587" lon="0.97911">
        <ele>110.21</ele>
        <time>2014-09-13T15:56:18Z</time>
      </trkpt>
      <trkpt lat="44.44588" lon="0.97904">
        <ele>110.21</ele>
        <time>2014-09-13T15:56:19Z</time>
      </trkpt>
      <trkpt lat="44.44589" lon="0.97897">
        <ele>110.21</ele>
        <time>2014-09-13T15:56:20Z</time>
      </trkpt>
      <trkpt lat="44.44589" lon="0.97889">
        <ele>110.21</ele>
        <time>2014-09-13T15:56:21Z</time>
      </trkpt>
      <trkpt lat="44.4459" lon="0.97847">
        <ele>111.17</ele>
        <time>2014-09-13T15:56:27Z</time>
      </trkpt>
      <trkpt lat="44.44591" lon="0.97839">
        <ele>111.17</ele>
        <time>2014-09-13T15:56:28Z</time>
      </trkpt>
      <trkpt lat="44.44605" lon="0.97771">
        <ele>110.69</ele>
        <time>2014-09-13T15:56:37Z</time>
      </trkpt>
      <trkpt lat="44.44606" lon="0.97763">
        <ele>110.69</ele>
        <time>2014-09-13T15:56:38Z</time>
      </trkpt>
      <trkpt lat="44.44609" lon="0.97731">
        <ele>110.21</ele>
        <time>2014-09-13T15:56:42Z</time>
      </trkpt>
      <trkpt lat="44.44609" lon="0.97723">
        <ele>110.21</ele>
        <time>2014-09-13T15:56:43Z</time>
      </trkpt>
      <trkpt lat="44.44625" lon="0.97594">
        <ele>106.84</ele>
        <time>2014-09-13T15:56:57Z</time>
      </trkpt>
      <trkpt lat="44.44667" lon="0.97441">
        <ele>105.88</ele>
        <time>2014-09-13T15:57:15Z</time>
      </trkpt>
      <trkpt lat="44.44669" lon="0.97434">
        <ele>105.88</ele>
        <time>2014-09-13T15:57:16Z</time>
      </trkpt>
      <trkpt lat="44.44698" lon="0.97374">
        <ele>106.84</ele>
        <time>2014-09-13T15:57:26Z</time>
      </trkpt>
      <trkpt lat="44.44759" lon="0.97281">
        <ele>110.21</ele>
        <time>2014-09-13T15:57:45Z</time>
      </trkpt>
      <trkpt lat="44.44816" lon="0.97188">
        <ele>109.73</ele>
        <time>2014-09-13T15:58:02Z</time>
      </trkpt>
      <trkpt lat="44.44867" lon="0.97094">
        <ele>107.81</ele>
        <time>2014-09-13T15:58:17Z</time>
      </trkpt>
      <trkpt lat="44.44936" lon="0.96963">
        <ele>107.32</ele>
        <time>2014-09-13T15:58:36Z</time>
      </trkpt>
      <trkpt lat="44.44995" lon="0.96847">
        <ele>104.92</ele>
        <time>2014-09-13T15:58:51Z</time>
      </trkpt>
      <trkpt lat="44.45058" lon="0.96725">
        <ele>104.44</ele>
        <time>2014-09-13T15:59:07Z</time>
      </trkpt>
      <trkpt lat="44.45106" lon="0.9661">
        <ele>104.92</ele>
        <time>2014-09-13T15:59:22Z</time>
      </trkpt>
      <trkpt lat="44.45134" lon="0.96535">
        <ele>104.44</ele>
        <time>2014-09-13T15:59:33Z</time>
      </trkpt>
      <trkpt lat="44.45135" lon="0.96533">
        <ele>103.96</ele>
        <time>2014-09-13T15:59:43Z</time>
      </trkpt>
      <trkpt lat="44.45128" lon="0.96528">
        <ele>103.48</ele>
        <time>2014-09-13T15:59:46Z</time>
      </trkpt>
      <trkpt lat="44.45125" lon="0.96528">
        <ele>103</ele>
        <time>2014-09-13T15:59:47Z</time>
      </trkpt>
      <trkpt lat="44.45116" lon="0.9653">
        <ele>103</ele>
        <time>2014-09-13T15:59:49Z</time>
      </trkpt>
      <trkpt lat="44.45058" lon="0.96532">
        <ele>102.04</ele>
        <time>2014-09-13T16:00:00Z</time>
      </trkpt>
      <trkpt lat="44.45052" lon="0.96531">
        <ele>101.56</ele>
        <time>2014-09-13T16:00:01Z</time>
      </trkpt>
      <trkpt lat="44.45047" lon="0.96529">
        <ele>101.56</ele>
        <time>2014-09-13T16:00:02Z</time>
      </trkpt>
      <trkpt lat="44.45042" lon="0.96525">
        <ele>101.56</ele>
        <time>2014-09-13T16:00:03Z</time>
      </trkpt>
      <trkpt lat="44.45037" lon="0.9652">
        <ele>101.56</ele>
        <time>2014-09-13T16:00:04Z</time>
      </trkpt>
      <trkpt lat="44.44983" lon="0.96465">
        <ele>102.04</ele>
        <time>2014-09-13T16:00:18Z</time>
      </trkpt>
      <trkpt lat="44.44971" lon="0.96454">
        <ele>102.52</ele>
        <time>2014-09-13T16:00:21Z</time>
      </trkpt>
      <trkpt lat="44.44968" lon="0.9645">
        <ele>103</ele>
        <time>2014-09-13T16:00:22Z</time>
      </trkpt>
      <trkpt lat="44.44965" lon="0.96446">
        <ele>103</ele>
        <time>2014-09-13T16:00:23Z</time>
      </trkpt>
      <trkpt lat="44.44962" lon="0.96442">
        <ele>103.48</ele>
        <time>2014-09-13T16:00:24Z</time>
      </trkpt>
      <trkpt lat="44.44958" lon="0.96439">
        <ele>103.48</ele>
        <time>2014-09-13T16:00:25Z</time>
      </trkpt>
      <trkpt lat="44.44945" lon="0.96424">
        <ele>104.44</ele>
        <time>2014-09-13T16:00:29Z</time>
      </trkpt>
      <trkpt lat="44.44944" lon="0.96418">
        <ele>104.44</ele>
        <time>2014-09-13T16:00:30Z</time>
      </trkpt>
      <trkpt lat="44.44946" lon="0.96413">
        <ele>104.92</ele>
        <time>2014-09-13T16:00:31Z</time>
      </trkpt>
      <trkpt lat="44.44953" lon="0.9639">
        <ele>104.92</ele>
        <time>2014-09-13T16:00:35Z</time>
      </trkpt>
      <trkpt lat="44.44982" lon="0.96292">
        <ele>104.92</ele>
        <time>2014-09-13T16:00:49Z</time>
      </trkpt>
      <trkpt lat="44.44985" lon="0.96288">
        <ele>105.4</ele>
        <time>2014-09-13T16:00:50Z</time>
      </trkpt>
      <trkpt lat="44.45018" lon="0.96235">
        <ele>108.29</ele>
        <time>2014-09-13T16:01:04Z</time>
      </trkpt>
      <trkpt lat="44.45043" lon="0.96209">
        <ele>109.73</ele>
        <time>2014-09-13T16:01:12Z</time>
      </trkpt>
      <trkpt lat="44.45099" lon="0.96148">
        <ele>105.4</ele>
        <time>2014-09-13T16:01:25Z</time>
      </trkpt>
      <trkpt lat="44.45176" lon="0.96073">
        <ele>102.04</ele>
        <time>2014-09-13T16:01:39Z</time>
      </trkpt>
      <trkpt lat="44.45229" lon="0.96019">
        <ele>100.11</ele>
        <time>2014-09-13T16:01:50Z</time>
      </trkpt>
      <trkpt lat="44.4523" lon="0.96018">
        <ele>100.11</ele>
        <time>2014-09-13T16:01:51Z</time>
      </trkpt>
      <trkpt lat="44.45231" lon="0.96018">
        <ele>100.11</ele>
        <time>2014-09-13T16:01:52Z</time>
      </trkpt>
      <trkpt lat="44.4523" lon="0.9602">
        <ele>100.11</ele>
        <time>2014-09-13T16:01:53Z</time>
      </trkpt>
      <trkpt lat="44.45227" lon="0.96022">
        <ele>100.6</ele>
        <time>2014-09-13T16:01:55Z</time>
      </trkpt>
      <trkpt lat="44.45225" lon="0.96024">
        <ele>100.6</ele>
        <time>2014-09-13T16:01:56Z</time>
      </trkpt>
      <trkpt lat="44.45221" lon="0.96025">
        <ele>101.08</ele>
        <time>2014-09-13T16:01:57Z</time>
      </trkpt>
      <trkpt lat="44.45219" lon="0.96027">
        <ele>101.08</ele>
        <time>2014-09-13T16:01:58Z</time>
      </trkpt>
      <trkpt lat="44.45216" lon="0.9603">
        <ele>101.08</ele>
        <time>2014-09-13T16:01:59Z</time>
      </trkpt>
      <trkpt lat="44.45191" lon="0.96053">
        <ele>103</ele>
        <time>2014-09-13T16:02:10Z</time>
      </trkpt>
      <trkpt lat="44.45191" lon="0.96053">
        <ele>103</ele>
        <time>2014-09-13T16:02:25Z</time>
      </trkpt>
      <trkpt lat="44.45192" lon="0.96053">
        <ele>103</ele>
        <time>2014-09-13T16:02:30Z</time>
      </trkpt>
      <trkpt lat="44.45193" lon="0.96052">
        <ele>103</ele>
        <time>2014-09-13T16:02:31Z</time>
      </trkpt>
      <trkpt lat="44.45195" lon="0.96052">
        <ele>103</ele>
        <time>2014-09-13T16:02:32Z</time>
      </trkpt>
      <trkpt lat="44.45201" lon="0.96049">
        <ele>102.04</ele>
        <time>2014-09-13T16:02:45Z</time>
      </trkpt>
      <trkpt lat="44.45202" lon="0.96047">
        <ele>102.04</ele>
        <time>2014-09-13T16:02:46Z</time>
      </trkpt>
      <trkpt lat="44.45208" lon="0.96039">
        <ele>101.56</ele>
        <time>2014-09-13T16:03:00Z</time>
      </trkpt>
      <trkpt lat="44.45211" lon="0.96037">
        <ele>101.08</ele>
        <time>2014-09-13T16:03:30Z</time>
      </trkpt>
      <trkpt lat="44.45239" lon="0.96012">
        <ele>99.63</ele>
        <time>2014-09-13T16:03:39Z</time>
      </trkpt>
      <trkpt lat="44.45243" lon="0.96009">
        <ele>99.63</ele>
        <time>2014-09-13T16:03:40Z</time>
      </trkpt>
      <trkpt lat="44.45247" lon="0.96005">
        <ele>99.15</ele>
        <time>2014-09-13T16:03:41Z</time>
      </trkpt>
      <trkpt lat="44.45284" lon="0.9598">
        <ele>98.19</ele>
        <time>2014-09-13T16:03:49Z</time>
      </trkpt>
      <trkpt lat="44.45341" lon="0.95957">
        <ele>96.27</ele>
        <time>2014-09-13T16:04:01Z</time>
      </trkpt>
      <trkpt lat="44.45356" lon="0.95948">
        <ele>96.27</ele>
        <time>2014-09-13T16:04:04Z</time>
      </trkpt>
      <trkpt lat="44.4536" lon="0.95943">
        <ele>96.27</ele>
        <time>2014-09-13T16:04:05Z</time>
      </trkpt>
      <trkpt lat="44.45394" lon="0.95891">
        <ele>96.27</ele>
        <time>2014-09-13T16:04:16Z</time>
      </trkpt>
      <trkpt lat="44.45395" lon="0.9589">
        <ele>96.27</ele>
        <time>2014-09-13T16:04:17Z</time>
      </trkpt>
      <trkpt lat="44.45396" lon="0.95888">
        <ele>96.27</ele>
        <time>2014-09-13T16:04:18Z</time>
      </trkpt>
      <trkpt lat="44.45397" lon="0.95886">
        <ele>96.27</ele>
        <time>2014-09-13T16:04:19Z</time>
      </trkpt>
      <trkpt lat="44.45397" lon="0.95883">
        <ele>96.27</ele>
        <time>2014-09-13T16:04:20Z</time>
      </trkpt>
      <trkpt lat="44.45396" lon="0.95881">
        <ele>96.27</ele>
        <time>2014-09-13T16:04:21Z</time>
      </trkpt>
      <trkpt lat="44.45395" lon="0.95878">
        <ele>96.27</ele>
        <time>2014-09-13T16:04:22Z</time>
      </trkpt>
      <trkpt lat="44.45394" lon="0.95874">
        <ele>96.27</ele>
        <time>2014-09-13T16:04:23Z</time>
      </trkpt>
      <trkpt lat="44.45382" lon="0.95838">
        <ele>97.71</ele>
        <time>2014-09-13T16:04:31Z</time>
      </trkpt>
      <trkpt lat="44.45383" lon="0.95834">
        <ele>97.71</ele>
        <time>2014-09-13T16:04:32Z</time>
      </trkpt>
      <trkpt lat="44.45384" lon="0.95829">
        <ele>97.71</ele>
        <time>2014-09-13T16:04:33Z</time>
      </trkpt>
      <trkpt lat="44.45387" lon="0.95825">
        <ele>98.19</ele>
        <time>2014-09-13T16:04:34Z</time>
      </trkpt>
      <trkpt lat="44.4539" lon="0.9582">
        <ele>98.19</ele>
        <time>2014-09-13T16:04:35Z</time>
      </trkpt>
      <trkpt lat="44.45441" lon="0.95727">
        <ele>100.11</ele>
        <time>2014-09-13T16:04:53Z</time>
      </trkpt>
      <trkpt lat="44.45499" lon="0.9563">
        <ele>99.63</ele>
        <time>2014-09-13T16:05:09Z</time>
      </trkpt>
      <trkpt lat="44.45582" lon="0.95529">
        <ele>98.19</ele>
        <time>2014-09-13T16:05:27Z</time>
      </trkpt>
      <trkpt lat="44.45672" lon="0.95447">
        <ele>96.27</ele>
        <time>2014-09-13T16:05:45Z</time>
      </trkpt>
      <trkpt lat="44.45752" lon="0.95387">
        <ele>95.79</ele>
        <time>2014-09-13T16:06:01Z</time>
      </trkpt>
      <trkpt lat="44.45848" lon="0.95323">
        <ele>93.87</ele>
        <time>2014-09-13T16:06:18Z</time>
      </trkpt>
      <trkpt lat="44.45881" lon="0.953">
        <ele>93.39</ele>
        <time>2014-09-13T16:06:24Z</time>
      </trkpt>
      <trkpt lat="44.45932" lon="0.95303">
        <ele>90.98</ele>
        <time>2014-09-13T16:06:33Z</time>
      </trkpt>
      <trkpt lat="44.45944" lon="0.95298">
        <ele>90.98</ele>
        <time>2014-09-13T16:06:35Z</time>
      </trkpt>
      <trkpt lat="44.45981" lon="0.95273">
        <ele>90.98</ele>
        <time>2014-09-13T16:06:42Z</time>
      </trkpt>
      <trkpt lat="44.45989" lon="0.95264">
        <ele>90.98</ele>
        <time>2014-09-13T16:06:44Z</time>
      </trkpt>
      <trkpt lat="44.46007" lon="0.95244">
        <ele>90.98</ele>
        <time>2014-09-13T16:06:50Z</time>
      </trkpt>
      <trkpt lat="44.46026" lon="0.95221">
        <ele>91.46</ele>
        <time>2014-09-13T16:07:00Z</time>
      </trkpt>
      <trkpt lat="44.4608" lon="0.95158">
        <ele>90.98</ele>
        <time>2014-09-13T16:07:15Z</time>
      </trkpt>
      <trkpt lat="44.46154" lon="0.95104">
        <ele>87.62</ele>
        <time>2014-09-13T16:07:30Z</time>
      </trkpt>
      <trkpt lat="44.46239" lon="0.95049">
        <ele>87.14</ele>
        <time>2014-09-13T16:07:45Z</time>
      </trkpt>
      <trkpt lat="44.46253" lon="0.95032">
        <ele>87.14</ele>
        <time>2014-09-13T16:07:48Z</time>
      </trkpt>
      <trkpt lat="44.46256" lon="0.95025">
        <ele>87.14</ele>
        <time>2014-09-13T16:07:49Z</time>
      </trkpt>
      <trkpt lat="44.46259" lon="0.95018">
        <ele>87.14</ele>
        <time>2014-09-13T16:07:50Z</time>
      </trkpt>
      <trkpt lat="44.46302" lon="0.94894">
        <ele>89.06</ele>
        <time>2014-09-13T16:08:07Z</time>
      </trkpt>
      <trkpt lat="44.46344" lon="0.94786">
        <ele>91.94</ele>
        <time>2014-09-13T16:08:25Z</time>
      </trkpt>
      <trkpt lat="44.46363" lon="0.94741">
        <ele>90.98</ele>
        <time>2014-09-13T16:08:33Z</time>
      </trkpt>
      <trkpt lat="44.46368" lon="0.9473">
        <ele>90.5</ele>
        <time>2014-09-13T16:08:35Z</time>
      </trkpt>
      <trkpt lat="44.46372" lon="0.94726">
        <ele>90.5</ele>
        <time>2014-09-13T16:08:36Z</time>
      </trkpt>
      <trkpt lat="44.46382" lon="0.94708">
        <ele>89.54</ele>
        <time>2014-09-13T16:08:40Z</time>
      </trkpt>
      <trkpt lat="44.46381" lon="0.94703">
        <ele>89.06</ele>
        <time>2014-09-13T16:08:41Z</time>
      </trkpt>
      <trkpt lat="44.46377" lon="0.94694">
        <ele>88.58</ele>
        <time>2014-09-13T16:08:43Z</time>
      </trkpt>
      <trkpt lat="44.46323" lon="0.94621">
        <ele>85.21</ele>
        <time>2014-09-13T16:08:57Z</time>
      </trkpt>
      <trkpt lat="44.46269" lon="0.94551">
        <ele>83.77</ele>
        <time>2014-09-13T16:09:10Z</time>
      </trkpt>
      <trkpt lat="44.46216" lon="0.94481">
        <ele>83.29</ele>
        <time>2014-09-13T16:09:24Z</time>
      </trkpt>
      <trkpt lat="44.46204" lon="0.94465">
        <ele>83.29</ele>
        <time>2014-09-13T16:09:27Z</time>
      </trkpt>
      <trkpt lat="44.46202" lon="0.94433">
        <ele>82.81</ele>
        <time>2014-09-13T16:09:32Z</time>
      </trkpt>
      <trkpt lat="44.46225" lon="0.94376">
        <ele>81.85</ele>
        <time>2014-09-13T16:09:41Z</time>
      </trkpt>
      <trkpt lat="44.46231" lon="0.94355">
        <ele>81.85</ele>
        <time>2014-09-13T16:09:46Z</time>
      </trkpt>
      <trkpt lat="44.46234" lon="0.94353">
        <ele>82.33</ele>
        <time>2014-09-13T16:09:47Z</time>
      </trkpt>
      <trkpt lat="44.46236" lon="0.9435">
        <ele>82.33</ele>
        <time>2014-09-13T16:09:48Z</time>
      </trkpt>
      <trkpt lat="44.46239" lon="0.94347">
        <ele>82.33</ele>
        <time>2014-09-13T16:09:49Z</time>
      </trkpt>
      <trkpt lat="44.46242" lon="0.94344">
        <ele>82.33</ele>
        <time>2014-09-13T16:09:50Z</time>
      </trkpt>
      <trkpt lat="44.4625" lon="0.94338">
        <ele>82.33</ele>
        <time>2014-09-13T16:09:52Z</time>
      </trkpt>
      <trkpt lat="44.46261" lon="0.94326">
        <ele>82.33</ele>
        <time>2014-09-13T16:09:55Z</time>
      </trkpt>
      <trkpt lat="44.46321" lon="0.9426">
        <ele>83.29</ele>
        <time>2014-09-13T16:10:10Z</time>
      </trkpt>
      <trkpt lat="44.46401" lon="0.94174">
        <ele>83.29</ele>
        <time>2014-09-13T16:10:29Z</time>
      </trkpt>
      <trkpt lat="44.46482" lon="0.94086">
        <ele>84.25</ele>
        <time>2014-09-13T16:10:48Z</time>
      </trkpt>
      <trkpt lat="44.46554" lon="0.94033">
        <ele>83.77</ele>
        <time>2014-09-13T16:11:03Z</time>
      </trkpt>
      <trkpt lat="44.46625" lon="0.94002">
        <ele>81.85</ele>
        <time>2014-09-13T16:11:17Z</time>
      </trkpt>
      <trkpt lat="44.4663" lon="0.94001">
        <ele>81.85</ele>
        <time>2014-09-13T16:11:18Z</time>
      </trkpt>
      <trkpt lat="44.46635" lon="0.94001">
        <ele>81.85</ele>
        <time>2014-09-13T16:11:19Z</time>
      </trkpt>
      <trkpt lat="44.4664" lon="0.94002">
        <ele>81.85</ele>
        <time>2014-09-13T16:11:20Z</time>
      </trkpt>
      <trkpt lat="44.46646" lon="0.94003">
        <ele>81.85</ele>
        <time>2014-09-13T16:11:21Z</time>
      </trkpt>
      <trkpt lat="44.46651" lon="0.94005">
        <ele>81.37</ele>
        <time>2014-09-13T16:11:22Z</time>
      </trkpt>
      <trkpt lat="44.46656" lon="0.94007">
        <ele>81.37</ele>
        <time>2014-09-13T16:11:23Z</time>
      </trkpt>
      <trkpt lat="44.46723" lon="0.94028">
        <ele>80.41</ele>
        <time>2014-09-13T16:11:36Z</time>
      </trkpt>
      <trkpt lat="44.46727" lon="0.94027">
        <ele>80.41</ele>
        <time>2014-09-13T16:11:37Z</time>
      </trkpt>
      <trkpt lat="44.46731" lon="0.94023">
        <ele>80.41</ele>
        <time>2014-09-13T16:11:38Z</time>
      </trkpt>
      <trkpt lat="44.46734" lon="0.94018">
        <ele>80.41</ele>
        <time>2014-09-13T16:11:39Z</time>
      </trkpt>
      <trkpt lat="44.46737" lon="0.94012">
        <ele>80.41</ele>
        <time>2014-09-13T16:11:40Z</time>
      </trkpt>
      <trkpt lat="44.46748" lon="0.93981">
        <ele>80.41</ele>
        <time>2014-09-13T16:11:45Z</time>
      </trkpt>
      <trkpt lat="44.46784" lon="0.93875">
        <ele>81.37</ele>
        <time>2014-09-13T16:12:01Z</time>
      </trkpt>
      <trkpt lat="44.46833" lon="0.93734">
        <ele>81.85</ele>
        <time>2014-09-13T16:12:22Z</time>
      </trkpt>
      <trkpt lat="44.46863" lon="0.93646">
        <ele>80.41</ele>
        <time>2014-09-13T16:12:35Z</time>
      </trkpt>
      <trkpt lat="44.46865" lon="0.93642">
        <ele>80.41</ele>
        <time>2014-09-13T16:12:36Z</time>
      </trkpt>
      <trkpt lat="44.46867" lon="0.93639">
        <ele>80.41</ele>
        <time>2014-09-13T16:12:37Z</time>
      </trkpt>
      <trkpt lat="44.46869" lon="0.93637">
        <ele>79.93</ele>
        <time>2014-09-13T16:12:38Z</time>
      </trkpt>
      <trkpt lat="44.46871" lon="0.93636">
        <ele>79.93</ele>
        <time>2014-09-13T16:12:39Z</time>
      </trkpt>
      <trkpt lat="44.46873" lon="0.93633">
        <ele>79.93</ele>
        <time>2014-09-13T16:12:51Z</time>
      </trkpt>
      <trkpt lat="44.46875" lon="0.93632">
        <ele>79.93</ele>
        <time>2014-09-13T16:12:52Z</time>
      </trkpt>
      <trkpt lat="44.46878" lon="0.93632">
        <ele>79.45</ele>
        <time>2014-09-13T16:12:53Z</time>
      </trkpt>
      <trkpt lat="44.46882" lon="0.93632">
        <ele>79.45</ele>
        <time>2014-09-13T16:12:54Z</time>
      </trkpt>
      <trkpt lat="44.46885" lon="0.93632">
        <ele>79.45</ele>
        <time>2014-09-13T16:12:55Z</time>
      </trkpt>
      <trkpt lat="44.46888" lon="0.9363">
        <ele>78.97</ele>
        <time>2014-09-13T16:12:56Z</time>
      </trkpt>
      <trkpt lat="44.46896" lon="0.93601">
        <ele>75.6</ele>
        <time>2014-09-13T16:13:01Z</time>
      </trkpt>
      <trkpt lat="44.46912" lon="0.93582">
        <ele>72.24</ele>
        <time>2014-09-13T16:13:06Z</time>
      </trkpt>
      <trkpt lat="44.46917" lon="0.93583">
        <ele>71.76</ele>
        <time>2014-09-13T16:13:07Z</time>
      </trkpt>
      <trkpt lat="44.46921" lon="0.93584">
        <ele>71.76</ele>
        <time>2014-09-13T16:13:08Z</time>
      </trkpt>
      <trkpt lat="44.46926" lon="0.93585">
        <ele>71.76</ele>
        <time>2014-09-13T16:13:09Z</time>
      </trkpt>
      <trkpt lat="44.4693" lon="0.93587">
        <ele>71.76</ele>
        <time>2014-09-13T16:13:10Z</time>
      </trkpt>
      <trkpt lat="44.46956" lon="0.93594">
        <ele>71.76</ele>
        <time>2014-09-13T16:13:15Z</time>
      </trkpt>
      <trkpt lat="44.46961" lon="0.93593">
        <ele>71.76</ele>
        <time>2014-09-13T16:13:16Z</time>
      </trkpt>
      <trkpt lat="44.46967" lon="0.93591">
        <ele>71.27</ele>
        <time>2014-09-13T16:13:17Z</time>
      </trkpt>
      <trkpt lat="44.46972" lon="0.93589">
        <ele>71.76</ele>
        <time>2014-09-13T16:13:18Z</time>
      </trkpt>
      <trkpt lat="44.46977" lon="0.93586">
        <ele>71.27</ele>
        <time>2014-09-13T16:13:19Z</time>
      </trkpt>
      <trkpt lat="44.46982" lon="0.93582">
        <ele>71.27</ele>
        <time>2014-09-13T16:13:20Z</time>
      </trkpt>
      <trkpt lat="44.46986" lon="0.93578">
        <ele>71.27</ele>
        <time>2014-09-13T16:13:21Z</time>
      </trkpt>
      <trkpt lat="44.47067" lon="0.93503">
        <ele>70.31</ele>
        <time>2014-09-13T16:13:39Z</time>
      </trkpt>
      <trkpt lat="44.47095" lon="0.93479">
        <ele>70.31</ele>
        <time>2014-09-13T16:13:47Z</time>
      </trkpt>
      <trkpt lat="44.47098" lon="0.93479">
        <ele>70.31</ele>
        <time>2014-09-13T16:13:48Z</time>
      </trkpt>
      <trkpt lat="44.47101" lon="0.93482">
        <ele>70.31</ele>
        <time>2014-09-13T16:13:50Z</time>
      </trkpt>
      <trkpt lat="44.47107" lon="0.93491">
        <ele>70.31</ele>
        <time>2014-09-13T16:13:55Z</time>
      </trkpt>
      <trkpt lat="44.47109" lon="0.93491">
        <ele>70.31</ele>
        <time>2014-09-13T16:13:56Z</time>
      </trkpt>
      <trkpt lat="44.47111" lon="0.93492">
        <ele>69.83</ele>
        <time>2014-09-13T16:13:57Z</time>
      </trkpt>
      <trkpt lat="44.47114" lon="0.93492">
        <ele>69.83</ele>
        <time>2014-09-13T16:13:58Z</time>
      </trkpt>
      <trkpt lat="44.47117" lon="0.93491">
        <ele>69.83</ele>
        <time>2014-09-13T16:13:59Z</time>
      </trkpt>
      <trkpt lat="44.47163" lon="0.93473">
        <ele>69.35</ele>
        <time>2014-09-13T16:14:11Z</time>
      </trkpt>
      <trkpt lat="44.47197" lon="0.93455">
        <ele>69.35</ele>
        <time>2014-09-13T16:14:22Z</time>
      </trkpt>
      <trkpt lat="44.47211" lon="0.93433">
        <ele>69.35</ele>
        <time>2014-09-13T16:14:32Z</time>
      </trkpt>
      <trkpt lat="44.47211" lon="0.93427">
        <ele>69.35</ele>
        <time>2014-09-13T16:14:34Z</time>
      </trkpt>
      <trkpt lat="44.4721" lon="0.93424">
        <ele>69.35</ele>
        <time>2014-09-13T16:14:35Z</time>
      </trkpt>
      <trkpt lat="44.47209" lon="0.93422">
        <ele>69.35</ele>
        <time>2014-09-13T16:14:36Z</time>
      </trkpt>
      <trkpt lat="44.47207" lon="0.93421">
        <ele>69.35</ele>
        <time>2014-09-13T16:14:37Z</time>
      </trkpt>
      <trkpt lat="44.47206" lon="0.93419">
        <ele>69.35</ele>
        <time>2014-09-13T16:14:42Z</time>
      </trkpt>
      <trkpt lat="44.47207" lon="0.93419">
        <ele>69.35</ele>
        <time>2014-09-13T16:14:43Z</time>
      </trkpt>
      <trkpt lat="44.47208" lon="0.9342">
        <ele>69.35</ele>
        <time>2014-09-13T16:14:44Z</time>
      </trkpt>
      <trkpt lat="44.47209" lon="0.9342">
        <ele>68.87</ele>
        <time>2014-09-13T16:14:45Z</time>
      </trkpt>
      <trkpt lat="44.4721" lon="0.93421">
        <ele>68.87</ele>
        <time>2014-09-13T16:14:46Z</time>
      </trkpt>
      <trkpt lat="44.47214" lon="0.93425">
        <ele>67.91</ele>
        <time>2014-09-13T16:14:51Z</time>
      </trkpt>
      <trkpt lat="44.47216" lon="0.93425">
        <ele>68.39</ele>
        <time>2014-09-13T16:15:02Z</time>
      </trkpt>
    </trkseg>
  </trk>
</gpx>